Home > Products > Valid Products > TAF

000
FTUS41 KOKX 280134 AAA
TAFISP
TAF AMD
KISP 280134Z 2802/2824 33013G19KT P6SM BKN060
     FM281100 36015G22KT P6SM SCT250
     FM281800 33012G19KT P6SM SCT070 SCT250
     FM282300 30010KT P6SM SKC=



000
FTUS41 KOKX 272337
TAFISP
TAF
KISP 272337Z 2800/2824 31012G18KT P6SM BKN090
     FM280500 33011KT P6SM BKN040
     FM281100 36015G22KT P6SM SCT250
     FM281800 33012G19KT P6SM SCT070 SCT250
     FM282300 30010KT P6SM SKC=



000
FTUS41 KOKX 272337
TAFEWR
TAF
KEWR 272337Z 2800/2906 32015G23KT P6SM BKN090
     FM280500 33014G22KT P6SM BKN040
     FM281100 35016G24KT P6SM SCT250
     FM281900 33012G19KT P6SM SCT070 SCT250
     FM290100 31010KT P6SM SKC=



000
FTUS41 KOKX 272337
TAFLGA
TAF
KLGA 272337Z 2800/2824 32015G22KT P6SM SCT060 BKN090
     FM280500 33016G23KT P6SM BKN040
     FM281100 35017G25KT P6SM SCT250
     FM281800 34011G18KT P6SM SCT070 SCT250
     FM282200 33010KT P6SM SKC=



000
FTUS41 KOKX 272337
TAFSWF
TAF
KSWF 272337Z 2800/2906 33014G22KT P6SM BKN050
     FM280800 32017KT P6SM SCT250
     FM281200 36019G28KT P6SM SCT060 SCT250
     FM282100 34014G21KT P6SM SCT060
     FM282300 31010KT P6SM SKC
      AMD NOT SKED=



000
FTUS41 KOKX 272337
TAFGON
TAF
KGON 272337Z 2800/2824 34015G23KT P6SM BKN070
     FM280400 35011KT P6SM BKN040
     FM281200 35015G23KT P6SM SCT250
     FM281900 32013G20KT P6SM SCT070 SCT250=



000
FTUS41 KOKX 272337
TAFBDR
TAF
KBDR 272337Z 2800/2824 32014G23KT P6SM BKN060
     FM280300 34010KT P6SM BKN040
     FM281200 35016G24KT P6SM SCT250
     FM281800 32011G19KT P6SM SCT070 SCT250
     FM282200 33010KT P6SM SKC=



000
FTUS41 KOKX 272337
TAFJFK
TAF
KJFK 272337Z 2800/2906 32016G22KT P6SM BKN090
     FM280500 33016G23KT P6SM BKN040
     FM281100 35018G26KT P6SM SCT250
     FM281900 32012G19KT P6SM SCT070 SCT250
     FM290100 31009KT P6SM SKC=



000
FTUS41 KOKX 272337
TAFTEB
TAF
KTEB 272337Z 2800/2824 32013G21KT P6SM BKN090
     FM280400 33009G15KT P6SM BKN040
     FM281100 35013G21KT P6SM SCT250
     FM281900 33009G15KT P6SM SCT070 SCT250=



000
FTUS41 KOKX 272059 AAB
TAFBDR
TAF AMD
KBDR 272059Z 2721/2818 32013G20KT P6SM SCT060 BKN090
     FM280000 33010G17KT P6SM BKN060
     FM280400 36009KT P6SM BKN040
     FM281300 35014G22KT P6SM SCT070=



000
FTUS41 KOKX 272058 AAB
TAFTEB
TAF AMD
KTEB 272058Z 2721/2818 33013G19KT P6SM SCT060 BKN090
     FM280000 33010KT P6SM BKN050
     FM281300 35012G20KT P6SM SCT070=



000
FTUS41 KOKX 272058 AAB
TAFTEB
TAF AMD
KTEB 272058Z 2721/2818 33013G19KT P6SM SCT060 BKN090
     FM280000 33010KT P6SM BKN050
     FM281300 35012G20KT P6SM SCT070=



000
FTUS41 KOKX 271945 AAA
TAFBDR
TAF AMD
KBDR 271945Z 2720/2818 31012G21KT P6SM SCT060 BKN090
     FM280000 33010G17KT P6SM BKN060
     FM280400 36009KT P6SM BKN040
     FM281300 35014G22KT P6SM SCT070=



000
FTUS41 KOKX 271945 AAA
TAFTEB
TAF AMD
KTEB 271945Z 2720/2818 32013G20KT P6SM SCT060 BKN090
     FM280000 33010KT P6SM BKN050
     FM281300 35012G20KT P6SM SCT070=



000
FTUS41 KOKX 271945 AAA
TAFISP
TAF AMD
KISP 271945Z 2720/2818 32013G21KT P6SM SCT060 BKN090
     FM280300 35009KT P6SM BKN040
     FM281300 35014G22KT P6SM SCT070=



000
FTUS41 KOKX 271945 AAA
TAFSWF
TAF AMD
KSWF 271945Z 2720/2824 33013G20KT P6SM FEW040 BKN070
     FM280400 34013G20KT P6SM BKN040
     FM281300 35016G25KT P6SM SCT060
     FM282200 33011KT P6SM SCT060
      AMD NOT SKED=



000
FTUS41 KOKX 271945 AAA
TAFJFK
TAF AMD
KJFK 271945Z 2720/2824 32015G21KT P6SM SCT060 BKN090
     FM280000 33014G22KT P6SM BKN060
     FM280400 34016G24KT P6SM BKN040
     FM281900 31013G20KT P6SM SCT070=



000
FTUS41 KOKX 271945 AAA
TAFLGA
TAF AMD
KLGA 271945Z 2720/2818 32014G21KT P6SM SCT060 BKN090
     FM280400 33014G22KT P6SM BKN040
     FM281200 35015G23KT P6SM SCT070=



000
FTUS41 KOKX 271945 AAA
TAFEWR
TAF AMD
KEWR 271945Z 2720/2824 31015G22KT P6SM SCT060 BKN090
     FM280000 33015G23KT P6SM BKN050
     FM281200 35016G24KT P6SM SCT070
     FM282000 32012G20KT P6SM SCT070=



000
FTUS41 KOKX 271945 AAA
TAFGON
TAF AMD
KGON 271945Z 2720/2818 32013G20KT P6SM FEW040 BKN060
     FM280000 35010G17KT P6SM BKN040
     FM281300 34014G22KT P6SM SCT070=



000
FTUS41 KOKX 271721
TAFLGA
TAF
KLGA 271721Z 2718/2818 32014G21KT P6SM SCT060 BKN090
     FM280400 33014G22KT P6SM BKN040
     FM281200 35015G23KT P6SM SCT070=



000
FTUS41 KOKX 271721
TAFJFK
TAF
KJFK 271721Z 2718/2824 31014G21KT P6SM SCT060 BKN090
     FM280000 33014G22KT P6SM BKN060
     FM280400 34016G24KT P6SM BKN040
     FM281900 31013G20KT P6SM SCT070=



000
FTUS41 KOKX 271721
TAFEWR
TAF
KEWR 271721Z 2718/2824 31015G22KT P6SM SCT060 BKN090
     FM280000 33015G23KT P6SM BKN050
     FM281200 35016G24KT P6SM SCT070
     FM282000 32012G20KT P6SM SCT070=



000
FTUS41 KOKX 271721
TAFBDR
TAF
KBDR 271721Z 2718/2818 31012G21KT P6SM SCT060 BKN090
     FM280000 33010G17KT P6SM BKN060
     FM280400 36009KT P6SM BKN040
     FM281300 35014G22KT P6SM SCT070=



000
FTUS41 KOKX 271721
TAFGON
TAF
KGON 271721Z 2718/2818 32013G20KT P6SM FEW040 BKN060
     FM280000 35010G17KT P6SM BKN040
     FM281300 34014G22KT P6SM SCT070=



000
FTUS41 KOKX 271721
TAFISP
TAF
KISP 271721Z 2718/2818 32013G21KT P6SM SCT060 BKN090
     FM280300 35009KT P6SM BKN040
     FM281300 35014G22KT P6SM SCT070=



000
FTUS41 KOKX 271721
TAFSWF
TAF
KSWF 271721Z 2718/2824 33014G22KT P6SM FEW040 BKN070
     FM280400 34013G20KT P6SM BKN040
     FM281300 35016G25KT P6SM SCT060
     FM282200 33011KT P6SM SCT060
      AMD NOT SKED=



000
FTUS41 KOKX 271721
TAFTEB
TAF
KTEB 271721Z 2718/2818 32013G20KT P6SM SCT060 BKN090
     FM280000 33010KT P6SM BKN050
     FM281300 35012G20KT P6SM SCT070=



000
FTUS41 KOKX 271721
TAFSWF
TAF
KSWF 271721Z 2718/2824 33014G22KT P6SM FEW040 BKN070
     FM280400 34013G20KT P6SM BKN040
     FM281300 35016G25KT P6SM SCT060
     FM282200 33011KT P6SM SCT060
      AMD NOT SKED=



000
FTUS41 KOKX 271721
TAFBDR
TAF
KBDR 271721Z 2718/2818 31012G21KT P6SM SCT060 BKN090
     FM280000 33010G17KT P6SM BKN060
     FM280400 36009KT P6SM BKN040
     FM281300 35014G22KT P6SM SCT070=



000
FTUS41 KOKX 271721
TAFGON
TAF
KGON 271721Z 2718/2818 32013G20KT P6SM FEW040 BKN060
     FM280000 35010G17KT P6SM BKN040
     FM281300 34014G22KT P6SM SCT070=



000
FTUS41 KOKX 271721
TAFTEB
TAF
KTEB 271721Z 2718/2818 32013G20KT P6SM SCT060 BKN090
     FM280000 33010KT P6SM BKN050
     FM281300 35012G20KT P6SM SCT070=



000
FTUS41 KOKX 271721
TAFJFK
TAF
KJFK 271721Z 2718/2824 31014G21KT P6SM SCT060 BKN090
     FM280000 33014G22KT P6SM BKN060
     FM280400 34016G24KT P6SM BKN040
     FM281900 31013G20KT P6SM SCT070=



000
FTUS41 KOKX 271721
TAFISP
TAF
KISP 271721Z 2718/2818 32013G21KT P6SM SCT060 BKN090
     FM280300 35009KT P6SM BKN040
     FM281300 35014G22KT P6SM SCT070=



000
FTUS41 KOKX 271721
TAFLGA
TAF
KLGA 271721Z 2718/2818 32014G21KT P6SM SCT060 BKN090
     FM280400 33014G22KT P6SM BKN040
     FM281200 35015G23KT P6SM SCT070=



000
FTUS41 KOKX 271721
TAFEWR
TAF
KEWR 271721Z 2718/2824 31015G22KT P6SM SCT060 BKN090
     FM280000 33015G23KT P6SM BKN050
     FM281200 35016G24KT P6SM SCT070
     FM282000 32012G20KT P6SM SCT070=



000
FTUS41 KOKX 271436 AAA
TAFISP
TAF AMD
KISP 271436Z 2715/2812 32010KT P6SM FEW040 SCT080
     FM271700 31011G17KT P6SM FEW040 BKN080
     FM272000 31013G19KT P6SM BKN070
     FM280000 32010G17KT P6SM BKN060=



000
FTUS41 KOKX 271436 AAA
TAFISP
TAF AMD
KISP 271436Z 2715/2812 32010KT P6SM FEW040 SCT080
     FM271700 31011G17KT P6SM FEW040 BKN080
     FM272000 31013G19KT P6SM BKN070
     FM280000 32010G17KT P6SM BKN060=



000
FTUS41 KOKX 271436 AAA
TAFLGA
TAF AMD
KLGA 271436Z 2715/2812 32010KT P6SM FEW040 SCT080
     FM271700 32013G19KT P6SM FEW040 BKN080
     FM272000 32015G22KT P6SM BKN070
     FM280000 33013G20KT P6SM BKN060=



000
FTUS41 KOKX 271436 AAA
TAFJFK
TAF AMD
KJFK 271436Z 2715/2818 32011KT P6SM FEW040 SCT080
     FM271700 31013G19KT P6SM FEW040 BKN080
     FM272000 31015G22KT P6SM BKN080
     FM280000 33014G20KT P6SM BKN070
     FM281200 34015G25KT P6SM BKN060=



000
FTUS41 KOKX 271436 AAA
TAFEWR
TAF AMD
KEWR 271436Z 2715/2818 32010KT P6SM FEW040 SCT080
     FM271700 31013G19KT P6SM FEW040 BKN080
     FM272000 31015G22KT P6SM BKN070
     FM280000 33014G20KT P6SM BKN060
     FM280500 33011KT P6SM BKN060
     FM281200 34014G24KT P6SM BKN060=



000
FTUS41 KOKX 271436 AAA
TAFBDR
TAF AMD
KBDR 271436Z 2715/2812 31010KT P6SM BKN080
     FM271700 30011G17KT P6SM FEW040 BKN070
     FM272000 30013G19KT P6SM BKN070
     FM280000 33010G17KT P6SM BKN060
     FM280400 34008KT P6SM BKN060=



000
FTUS41 KOKX 271436 AAA
TAFSWF
TAF AMD
KSWF 271436Z 2715/2818 32011G20KT P6SM FEW040 BKN070
     FM271700 32014G20KT P6SM FEW040 BKN070
     FM280000 33012G18KT P6SM BKN060
     FM280400 33010KT P6SM BKN050
     FM281200 36014G24KT P6SM BKN050
      AMD NOT SKED=



000
FTUS41 KOKX 271436 AAA
TAFJFK
TAF AMD
KJFK 271436Z 2715/2818 32011KT P6SM FEW040 SCT080
     FM271700 31013G19KT P6SM FEW040 BKN080
     FM272000 31015G22KT P6SM BKN080
     FM280000 33014G20KT P6SM BKN070
     FM281200 34015G25KT P6SM BKN060=



000
FTUS41 KOKX 271436 AAA
TAFLGA
TAF AMD
KLGA 271436Z 2715/2812 32010KT P6SM FEW040 SCT080
     FM271700 32013G19KT P6SM FEW040 BKN080
     FM272000 32015G22KT P6SM BKN070
     FM280000 33013G20KT P6SM BKN060=



000
FTUS41 KOKX 271436 AAA
TAFTEB
TAF AMD
KTEB 271436Z 2715/2812 32010KT P6SM FEW040 SCT080
     FM271700 32011G17KT P6SM FEW040 BKN080
     FM272000 32013G20KT P6SM BKN070
     FM280000 33010G17KT P6SM BKN060
     FM280400 33008KT P6SM SCT060=



000
FTUS41 KOKX 271436 AAA
TAFSWF
TAF AMD
KSWF 271436Z 2715/2818 32011G20KT P6SM FEW040 BKN070
     FM271700 32014G20KT P6SM FEW040 BKN070
     FM280000 33012G18KT P6SM BKN060
     FM280400 33010KT P6SM BKN050
     FM281200 36014G24KT P6SM BKN050
      AMD NOT SKED=



000
FTUS41 KOKX 271436 AAA
TAFBDR
TAF AMD
KBDR 271436Z 2715/2812 31010KT P6SM BKN080
     FM271700 30011G17KT P6SM FEW040 BKN070
     FM272000 30013G19KT P6SM BKN070
     FM280000 33010G17KT P6SM BKN060
     FM280400 34008KT P6SM BKN060=



000
FTUS41 KOKX 271436 AAA
TAFTEB
TAF AMD
KTEB 271436Z 2715/2812 32010KT P6SM FEW040 SCT080
     FM271700 32011G17KT P6SM FEW040 BKN080
     FM272000 32013G20KT P6SM BKN070
     FM280000 33010G17KT P6SM BKN060
     FM280400 33008KT P6SM SCT060=



000
FTUS41 KOKX 271436 AAA
TAFEWR
TAF AMD
KEWR 271436Z 2715/2818 32010KT P6SM FEW040 SCT080
     FM271700 31013G19KT P6SM FEW040 BKN080
     FM272000 31015G22KT P6SM BKN070
     FM280000 33014G20KT P6SM BKN060
     FM280500 33011KT P6SM BKN060
     FM281200 34014G24KT P6SM BKN060=



000
FTUS41 KOKX 271436 AAA
TAFGON
TAF AMD
KGON 271436Z 2715/2812 31011KT P6SM BKN070
     FM271700 30011G17KT P6SM FEW040 BKN070
     FM280000 33010G17KT P6SM BKN060
     FM280400 34008KT P6SM BKN060=



000
FTUS41 KOKX 271436 AAA
TAFGON
TAF AMD
KGON 271436Z 2715/2812 31011KT P6SM BKN070
     FM271700 30011G17KT P6SM FEW040 BKN070
     FM280000 33010G17KT P6SM BKN060
     FM280400 34008KT P6SM BKN060=



000
FTUS41 KOKX 271120
TAFJFK
TAF
KJFK 271120Z 2712/2818 32011KT P6SM BKN070
     FM271400 32012KT P6SM BKN060
     FM271700 31013G19KT P6SM BKN060
     FM272000 31015G22KT P6SM BKN060
     FM280000 33014G20KT P6SM BKN060
     FM281200 34015G25KT P6SM BKN060=



000
FTUS41 KOKX 271120
TAFLGA
TAF
KLGA 271120Z 2712/2812 32011KT P6SM BKN070
     FM271400 32012KT P6SM BKN060
     FM271700 32013G19KT P6SM BKN060
     FM272000 32015G22KT P6SM BKN060
     FM280000 33013G20KT P6SM BKN060=



000
FTUS41 KOKX 271120
TAFGON
TAF
KGON 271120Z 2712/2812 32006KT P6SM BKN070
     FM271400 31010KT P6SM BKN060
     FM271700 30011G17KT P6SM BKN060
     FM280000 33010G17KT P6SM BKN060
     FM280400 34008KT P6SM BKN060=



000
FTUS41 KOKX 271120
TAFEWR
TAF
KEWR 271120Z 2712/2818 32009KT P6SM BKN070
     FM271400 32012KT P6SM BKN060
     FM271700 31013G19KT P6SM BKN060
     FM272000 31015G22KT P6SM BKN060
     FM280000 33014G20KT P6SM BKN060
     FM280500 33011KT P6SM BKN060
     FM281200 34014G24KT P6SM BKN060=



000
FTUS41 KOKX 271120
TAFTEB
TAF
KTEB 271120Z 2712/2812 32008KT P6SM BKN070
     FM271400 32010KT P6SM BKN060
     FM271700 32011G17KT P6SM BKN060
     FM272000 32013G20KT P6SM BKN060
     FM280000 33010G17KT P6SM BKN060
     FM280400 33008KT P6SM SCT060=



000
FTUS41 KOKX 271120
TAFBDR
TAF
KBDR 271120Z 2712/2812 33006KT P6SM BKN070
     FM271400 31010KT P6SM BKN060
     FM271700 30011G17KT P6SM BKN060
     FM272000 30013G19KT P6SM BKN060
     FM280000 33010G17KT P6SM BKN060
     FM280400 34008KT P6SM BKN060=



000
FTUS41 KOKX 271120
TAFSWF
TAF
KSWF 271120Z 2712/2818 VRB06KT P6SM BKN060
     FM271400 32011KT P6SM BKN050
     FM271700 32014G20KT P6SM BKN050
     FM280000 33012G18KT P6SM BKN050
     FM280400 33010KT P6SM BKN050
     FM281200 36014G24KT P6SM BKN050
      AMD NOT SKED=



000
FTUS41 KOKX 271120
TAFISP
TAF
KISP 271120Z 2712/2812 31006KT P6SM BKN070
     FM271400 31010KT P6SM BKN060
     FM271700 31011G17KT P6SM BKN060
     FM272000 31013G19KT P6SM BKN060
     FM280000 32010G17KT P6SM BKN060=



000
FTUS41 KOKX 270833 AAA
TAFBDR
TAF AMD
KBDR 270833Z 2709/2806 33006KT P6SM BKN070
     FM271400 31010KT P6SM BKN060
     FM271700 30011G17KT P6SM BKN060
     FM272000 30013G19KT P6SM BKN060
     FM280000 33010G17KT P6SM BKN060
     FM280400 34008KT P6SM BKN060=



000
FTUS41 KOKX 270833 AAA
TAFGON
TAF AMD
KGON 270833Z 2709/2806 32006KT P6SM BKN070
     FM271400 31010KT P6SM BKN060
     FM271700 30011G17KT P6SM BKN060
     FM280000 33010G17KT P6SM BKN060
     FM280400 34008KT P6SM BKN060=



000
FTUS41 KOKX 270833 AAA
TAFJFK
TAF AMD
KJFK 270833Z 2709/2812 32011KT P6SM SCT070
     FM271400 32012KT P6SM BKN060
     FM271700 31013G19KT P6SM BKN060
     FM272000 31015G22KT P6SM BKN060
     FM280000 33014G20KT P6SM BKN060=



000
FTUS41 KOKX 270833 AAA
TAFSWF
TAF AMD
KSWF 270833Z 2709/2812 VRB06KT P6SM BKN060
     FM271400 32011KT P6SM BKN050
     FM271700 32014G20KT P6SM BKN050
     FM280000 33012G18KT P6SM BKN050
     FM280400 33010KT P6SM BKN050
      AMD NOT SKED=



000
FTUS41 KOKX 270833 AAA
TAFEWR
TAF AMD
KEWR 270833Z 2709/2812 32009KT P6SM SCT070
     FM271400 32012KT P6SM BKN060
     FM271700 31013G19KT P6SM BKN060
     FM272000 31015G22KT P6SM BKN060
     FM280000 33014G20KT P6SM BKN060
     FM280500 33011KT P6SM SCT060=



000
FTUS41 KOKX 270833 AAA
TAFLGA
TAF AMD
KLGA 270833Z 2709/2806 32011KT P6SM BKN070
     FM271400 32012KT P6SM BKN060
     FM271700 32013G19KT P6SM BKN060
     FM272000 32015G22KT P6SM BKN060
     FM280000 33013G20KT P6SM BKN060=



000
FTUS41 KOKX 270833 AAA
TAFISP
TAF AMD
KISP 270833Z 2709/2806 31006KT P6SM BKN070
     FM271400 31010KT P6SM BKN060
     FM271700 31011G17KT P6SM BKN060
     FM272000 31013G19KT P6SM BKN060
     FM280000 32010G17KT P6SM BKN060=



000
FTUS41 KOKX 270833 AAA
TAFTEB
TAF AMD
KTEB 270833Z 2709/2806 32008KT P6SM BKN070
     FM271400 32010KT P6SM BKN060
     FM271700 32011G17KT P6SM BKN060
     FM272000 32013G20KT P6SM BKN060
     FM280000 33010G17KT P6SM BKN060
     FM280400 33008KT P6SM SCT060=



000
FTUS41 KOKX 270520
TAFTEB
TAF
KTEB 270520Z 2706/2806 33006KT P6SM SCT070
     FM271400 32010KT P6SM BKN060
     FM271700 32011G17KT P6SM BKN060
     FM272000 32013G20KT P6SM BKN060
     FM280000 33010G17KT P6SM BKN060
     FM280400 33008KT P6SM SCT060=



000
FTUS41 KOKX 270520
TAFLGA
TAF
KLGA 270520Z 2706/2806 32007KT P6SM BKN070
     FM271400 32012KT P6SM BKN060
     FM271700 32013G19KT P6SM BKN060
     FM272000 32015G22KT P6SM BKN060
     FM280000 33013G20KT P6SM BKN060=



000
FTUS41 KOKX 270520
TAFJFK
TAF
KJFK 270520Z 2706/2812 32007KT P6SM SCT070
     FM271400 32012KT P6SM BKN060
     FM271700 31013G19KT P6SM BKN060
     FM272000 31015G22KT P6SM BKN060
     FM280000 33014G20KT P6SM BKN060=



000
FTUS41 KOKX 270520
TAFISP
TAF
KISP 270520Z 2706/2806 31006KT P6SM BKN070
     FM271400 31010KT P6SM BKN060
     FM271700 31011G17KT P6SM BKN060
     FM272000 31013G19KT P6SM BKN060
     FM280000 32010G17KT P6SM BKN060=



000
FTUS41 KOKX 270520
TAFTEB
TAF
KTEB 270520Z 2706/2806 33006KT P6SM SCT070
     FM271400 32010KT P6SM BKN060
     FM271700 32011G17KT P6SM BKN060
     FM272000 32013G20KT P6SM BKN060
     FM280000 33010G17KT P6SM BKN060
     FM280400 33008KT P6SM SCT060=



000
FTUS41 KOKX 270520
TAFEWR
TAF
KEWR 270520Z 2706/2812 33007KT P6SM SCT070
     FM271400 32012KT P6SM BKN060
     FM271700 31013G19KT P6SM BKN060
     FM272000 31015G22KT P6SM BKN060
     FM280000 33014G20KT P6SM BKN060
     FM280500 33011KT P6SM SCT060=



000
FTUS41 KOKX 270520
TAFBDR
TAF
KBDR 270520Z 2706/2806 33006KT P6SM BKN070
     FM271400 31010KT P6SM BKN060
     FM271700 30011G17KT P6SM BKN060
     FM272000 30013G19KT P6SM BKN060
     FM280000 33010G17KT P6SM BKN060
     FM280400 34008KT P6SM BKN060=



000
FTUS41 KOKX 270520
TAFISP
TAF
KISP 270520Z 2706/2806 31006KT P6SM BKN070
     FM271400 31010KT P6SM BKN060
     FM271700 31011G17KT P6SM BKN060
     FM272000 31013G19KT P6SM BKN060
     FM280000 32010G17KT P6SM BKN060=



000
FTUS41 KOKX 270520
TAFSWF
TAF
KSWF 270520Z 2706/2812 VRB06KT P6SM BKN060
     FM271400 32011KT P6SM BKN050
     FM271700 32014G20KT P6SM BKN050
     FM280000 33012G18KT P6SM BKN050
     FM280400 33010KT P6SM BKN050
      AMD NOT SKED=



000
FTUS41 KOKX 270520
TAFBDR
TAF
KBDR 270520Z 2706/2806 33006KT P6SM BKN070
     FM271400 31010KT P6SM BKN060
     FM271700 30011G17KT P6SM BKN060
     FM272000 30013G19KT P6SM BKN060
     FM280000 33010G17KT P6SM BKN060
     FM280400 34008KT P6SM BKN060=



000
FTUS41 KOKX 270520
TAFJFK
TAF
KJFK 270520Z 2706/2812 32007KT P6SM SCT070
     FM271400 32012KT P6SM BKN060
     FM271700 31013G19KT P6SM BKN060
     FM272000 31015G22KT P6SM BKN060
     FM280000 33014G20KT P6SM BKN060=



000
FTUS41 KOKX 270520
TAFEWR
TAF
KEWR 270520Z 2706/2812 33007KT P6SM SCT070
     FM271400 32012KT P6SM BKN060
     FM271700 31013G19KT P6SM BKN060
     FM272000 31015G22KT P6SM BKN060
     FM280000 33014G20KT P6SM BKN060
     FM280500 33011KT P6SM SCT060=



000
FTUS41 KOKX 270520
TAFSWF
TAF
KSWF 270520Z 2706/2812 VRB06KT P6SM BKN060
     FM271400 32011KT P6SM BKN050
     FM271700 32014G20KT P6SM BKN050
     FM280000 33012G18KT P6SM BKN050
     FM280400 33010KT P6SM BKN050
      AMD NOT SKED=



000
FTUS41 KOKX 270520
TAFLGA
TAF
KLGA 270520Z 2706/2806 32007KT P6SM BKN070
     FM271400 32012KT P6SM BKN060
     FM271700 32013G19KT P6SM BKN060
     FM272000 32015G22KT P6SM BKN060
     FM280000 33013G20KT P6SM BKN060=



000
FTUS41 KOKX 270520
TAFGON
TAF
KGON 270520Z 2706/2806 32006KT P6SM BKN070
     FM271400 31010KT P6SM BKN060
     FM271700 30011G17KT P6SM BKN060
     FM280000 33010G17KT P6SM BKN060
     FM280400 34008KT P6SM BKN060=



000
FTUS41 KOKX 270520
TAFGON
TAF
KGON 270520Z 2706/2806 32006KT P6SM BKN070
     FM271400 31010KT P6SM BKN060
     FM271700 30011G17KT P6SM BKN060
     FM280000 33010G17KT P6SM BKN060
     FM280400 34008KT P6SM BKN060=



000
FTUS41 KOKX 270211 AAB
TAFGON
TAF AMD
KGON 270211Z 2702/2724 32006KT P6SM BKN070
     FM270700 32004KT P6SM SCT070
     FM271400 31010KT P6SM BKN060
     FM271700 30011G17KT P6SM BKN060 PROB30 2718/2724 -SHRA=



000
FTUS41 KOKX 270211 AAA
TAFBDR
TAF AMD
KBDR 270211Z 2702/2724 33006KT P6SM BKN070
     FM270400 32005KT P6SM SCT070
     FM271400 31010KT P6SM BKN060
     FM271700 30011G17KT P6SM BKN060
     FM272000 30013G19KT P6SM BKN060 PROB30 2720/2724 -SHRA=



000
FTUS41 KOKX 270211 AAA
TAFISP
TAF AMD
KISP 270211Z 2702/2724 25006KT P6SM BKN070
     FM270400 32006KT P6SM SCT070
     FM271400 31010KT P6SM BKN060
     FM271700 31011G17KT P6SM BKN060
     FM272000 31013G19KT P6SM BKN060 PROB30 2720/2724 -SHRA=



000
FTUS41 KOKX 270211 AAA
TAFSWF
TAF AMD
KSWF 270211Z 2702/2806 32006KT P6SM SCT060
     FM271400 32011KT P6SM BKN050
     FM271700 32014G20KT P6SM BKN050 PROB30 2718/2724 -SHRA
     FM280000 33014G20KT P6SM SCT050
      AMD NOT SKED=



000
FTUS41 KOKX 270211 AAA
TAFEWR
TAF AMD
KEWR 270211Z 2702/2806 33007KT P6SM SCT070
     FM271400 32012KT P6SM BKN060
     FM271700 32013G19KT P6SM BKN060
     FM272000 32015G22KT P6SM BKN060 PROB30 2720/2724 -SHRA
     FM280000 33014G20KT P6SM SCT060=



000
FTUS41 KOKX 270211 AAA
TAFEWR
TAF AMD
KEWR 270211Z 2702/2806 33007KT P6SM SCT070
     FM271400 32012KT P6SM BKN060
     FM271700 32013G19KT P6SM BKN060
     FM272000 32015G22KT P6SM BKN060 PROB30 2720/2724 -SHRA
     FM280000 33014G20KT P6SM SCT060=



000
FTUS41 KOKX 270211 AAB
TAFGON
TAF AMD
KGON 270211Z 2702/2724 32006KT P6SM BKN070
     FM270700 32004KT P6SM SCT070
     FM271400 31010KT P6SM BKN060
     FM271700 30011G17KT P6SM BKN060 PROB30 2718/2724 -SHRA=



000
FTUS41 KOKX 270211 AAC
TAFJFK
TAF AMD
KJFK 270211Z 2702/2806 33010KT P6SM SCT070
     FM270600 32007KT P6SM SCT070
     FM271400 32012KT P6SM BKN060
     FM271700 32013G19KT P6SM BKN060
     FM272000 32015G22KT P6SM BKN060 PROB30 2720/2724 -SHRA
     FM280000 33014G20KT P6SM SCT060=



000
FTUS41 KOKX 270211 AAB
TAFLGA
TAF AMD
KLGA 270211Z 2702/2724 33012KT P6SM SCT070
     FM270600 32007KT P6SM SCT070
     FM271400 32012KT P6SM BKN060
     FM271700 32013G19KT P6SM BKN060
     FM272000 32015G22KT P6SM BKN060 PROB30 2720/2724 -SHRA=



000
FTUS41 KOKX 270211 AAA
TAFISP
TAF AMD
KISP 270211Z 2702/2724 25006KT P6SM BKN070
     FM270400 32006KT P6SM SCT070
     FM271400 31010KT P6SM BKN060
     FM271700 31011G17KT P6SM BKN060
     FM272000 31013G19KT P6SM BKN060 PROB30 2720/2724 -SHRA=



000
FTUS41 KOKX 270211 AAA
TAFSWF
TAF AMD
KSWF 270211Z 2702/2806 32006KT P6SM SCT060
     FM271400 32011KT P6SM BKN050
     FM271700 32014G20KT P6SM BKN050 PROB30 2718/2724 -SHRA
     FM280000 33014G20KT P6SM SCT050
      AMD NOT SKED=



000
FTUS41 KOKX 270211 AAA
TAFBDR
TAF AMD
KBDR 270211Z 2702/2724 33006KT P6SM BKN070
     FM270400 32005KT P6SM SCT070
     FM271400 31010KT P6SM BKN060
     FM271700 30011G17KT P6SM BKN060
     FM272000 30013G19KT P6SM BKN060 PROB30 2720/2724 -SHRA=



000
FTUS41 KOKX 270211 AAA
TAFTEB
TAF AMD
KTEB 270211Z 2702/2724 33006KT P6SM SCT070
     FM271400 32010KT P6SM BKN060
     FM271700 32011G17KT P6SM BKN060
     FM272000 32014G20KT P6SM BKN060 PROB30 2720/2724 -SHRA=



000
FTUS41 KOKX 270211 AAA
TAFTEB
TAF AMD
KTEB 270211Z 2702/2724 33006KT P6SM SCT070
     FM271400 32010KT P6SM BKN060
     FM271700 32011G17KT P6SM BKN060
     FM272000 32014G20KT P6SM BKN060 PROB30 2720/2724 -SHRA=



000
FTUS41 KOKX 270211 AAB
TAFLGA
TAF AMD
KLGA 270211Z 2702/2724 33012KT P6SM SCT070
     FM270600 32007KT P6SM SCT070
     FM271400 32012KT P6SM BKN060
     FM271700 32013G19KT P6SM BKN060
     FM272000 32015G22KT P6SM BKN060 PROB30 2720/2724 -SHRA=



000
FTUS41 KOKX 270211 AAC
TAFJFK
TAF AMD
KJFK 270211Z 2702/2806 33010KT P6SM SCT070
     FM270600 32007KT P6SM SCT070
     FM271400 32012KT P6SM BKN060
     FM271700 32013G19KT P6SM BKN060
     FM272000 32015G22KT P6SM BKN060 PROB30 2720/2724 -SHRA
     FM280000 33014G20KT P6SM SCT060=



000
FTUS41 KOKX 270200 AAB
TAFJFK
TAF AMD
KJFK 270200Z 2702/2806 33010KT P6SM SCT070
     FM270600 32007KT P6SM SCT070
     FM271400 32012KT P6SM BKN060
     FM271700 32013G19KT P6SM BKN060
     FM272000 32015G22KT P6SM BKN060 PROB30 2720/2724 -SHRA
     FM280000 33014G20KT P6SM SCT060=



000
FTUS41 KOKX 270200 AAB
TAFJFK
TAF AMD
KJFK 270200Z 2702/2806 33010KT P6SM SCT070
     FM270600 32007KT P6SM SCT070
     FM271400 32012KT P6SM BKN060
     FM271700 32013G19KT P6SM BKN060
     FM272000 32015G22KT P6SM BKN060 PROB30 2720/2724 -SHRA
     FM280000 33014G20KT P6SM SCT060=



000
FTUS41 KOKX 270102 AAA
TAFGON
TAF AMD
KGON 270102Z 2701/2724 32006KT P6SM BKN070
     FM270400 32004KT P6SM SCT070
     FM271400 31010KT P6SM BKN060
     FM271700 30011G17KT P6SM BKN060 PROB30 2718/2724 -SHRA=



000
FTUS41 KOKX 270100 AAA
TAFLGA
TAF AMD
KLGA 270100Z 2701/2724 33012KT P6SM BKN070
     FM270400 32007KT P6SM SCT070
     FM271400 32012KT P6SM BKN060
     FM271700 32013G19KT P6SM BKN060
     FM272000 32015G22KT P6SM BKN060 PROB30 2720/2724 -SHRA=



000
FTUS41 KOKX 270100 AAA
TAFLGA
TAF AMD
KLGA 270100Z 2701/2724 33012KT P6SM BKN070
     FM270400 32007KT P6SM SCT070
     FM271400 32012KT P6SM BKN060
     FM271700 32013G19KT P6SM BKN060
     FM272000 32015G22KT P6SM BKN060 PROB30 2720/2724 -SHRA=



000
FTUS41 KOKX 270100 AAA
TAFJFK
TAF AMD
KJFK 270100Z 2701/2806 26006KT P6SM BKN070
     FM270300 32010KT P6SM BKN070
     FM270600 32007KT P6SM SCT070
     FM271400 32012KT P6SM BKN060
     FM271700 32013G19KT P6SM BKN060
     FM272000 32015G22KT P6SM BKN060 PROB30 2720/2724 -SHRA
     FM280000 33014G20KT P6SM SCT060=



000
FTUS41 KOKX 270100 AAA
TAFJFK
TAF AMD
KJFK 270100Z 2701/2806 26006KT P6SM BKN070
     FM270300 32010KT P6SM BKN070
     FM270600 32007KT P6SM SCT070
     FM271400 32012KT P6SM BKN060
     FM271700 32013G19KT P6SM BKN060
     FM272000 32015G22KT P6SM BKN060 PROB30 2720/2724 -SHRA
     FM280000 33014G20KT P6SM SCT060=



000
FTUS41 KOKX 262335
TAFLGA
TAF
KLGA 262335Z 2700/2724 18005KT P6SM BKN070
     FM270200 27005KT P6SM BKN070
     FM270400 32007KT P6SM SCT070
     FM271400 32012KT P6SM BKN060
     FM271700 32013G19KT P6SM BKN060
     FM272000 32015G22KT P6SM BKN060 PROB30 2720/2724 -SHRA=



000
FTUS41 KOKX 262335
TAFISP
TAF
KISP 262335Z 2700/2724 23007KT P6SM BKN070
     FM270200 25005KT P6SM BKN070
     FM270500 32005KT P6SM SCT070
     FM271400 31010KT P6SM BKN060
     FM271700 31011G17KT P6SM BKN060
     FM272000 31013G19KT P6SM BKN060 PROB30 2720/2724 -SHRA=



000
FTUS41 KOKX 262335
TAFJFK
TAF
KJFK 262335Z 2700/2806 20008KT P6SM BKN070
     FM270200 27005KT P6SM BKN070
     FM270400 32007KT P6SM SCT070
     FM271400 32012KT P6SM BKN060
     FM271700 32013G19KT P6SM BKN060
     FM272000 32015G22KT P6SM BKN060 PROB30 2720/2724 -SHRA
     FM280000 33014G20KT P6SM SCT060=



000
FTUS41 KOKX 262335
TAFSWF
TAF
KSWF 262335Z 2700/2806 33005KT P6SM BKN070
     FM270400 33006KT P6SM SCT070
     FM271400 32011KT P6SM BKN050
     FM271700 32014G20KT P6SM BKN050 PROB30 2718/2724 -SHRA
     FM280000 33014G20KT P6SM SCT050
      AMD NOT SKED=



000
FTUS41 KOKX 262335
TAFTEB
TAF
KTEB 262335Z 2700/2724 31008KT P6SM BKN070
     FM270300 32005KT P6SM SCT070
     FM271400 32010KT P6SM BKN060
     FM271700 32011G17KT P6SM BKN060
     FM272000 32014G20KT P6SM BKN060 PROB30 2720/2724 -SHRA=



000
FTUS41 KOKX 262335
TAFEWR
TAF
KEWR 262335Z 2700/2806 32012KT P6SM BKN070
     FM270400 32007KT P6SM SCT070
     FM271400 32012KT P6SM BKN060
     FM271700 32013G19KT P6SM BKN060
     FM272000 32015G22KT P6SM BKN060 PROB30 2720/2724 -SHRA
     FM280000 33014G20KT P6SM SCT060=



000
FTUS41 KOKX 262335
TAFBDR
TAF
KBDR 262335Z 2700/2724 33006KT P6SM BKN070
     FM270400 32005KT P6SM SCT070
     FM271400 31010KT P6SM BKN060
     FM271700 30011G17KT P6SM BKN060
     FM272000 30013G19KT P6SM BKN060 PROB30 2720/2724 -SHRA=



000
FTUS41 KOKX 262335
TAFGON
TAF
KGON 262335Z 2700/2724 24004KT P6SM BKN070
     FM270400 32004KT P6SM SCT070
     FM271400 31010KT P6SM BKN060
     FM271700 30011G17KT P6SM BKN060 PROB30 2718/2724 -SHRA=



000
FTUS41 KOKX 262115 AAB
TAFLGA
TAF AMD
KLGA 262115Z 2621/2718 VRB05KT P6SM BKN070
      TEMPO 2622/2624 17007KT
     FM270000 21005KT P6SM BKN070
     FM270400 32007KT P6SM SCT070
     FM271400 32012KT P6SM BKN060=



000
FTUS41 KOKX 262102 AAB
TAFEWR
TAF AMD
KEWR 262102Z 2621/2724 32009KT P6SM BKN070
     FM270300 32007KT P6SM SCT070
     FM271400 32012KT P6SM BKN060
     FM271900 32014G20KT P6SM BKN060 PROB30 2719/2724 -SHRA BKN050=



000
FTUS41 KOKX 262102 AAB
TAFEWR
TAF AMD
KEWR 262102Z 2621/2724 32009KT P6SM BKN070
     FM270300 32007KT P6SM SCT070
     FM271400 32012KT P6SM BKN060
     FM271900 32014G20KT P6SM BKN060 PROB30 2719/2724 -SHRA BKN050=



000
FTUS41 KOKX 261928 AAA
TAFJFK
TAF AMD
KJFK 261928Z 2619/2724 18013KT P6SM BKN070
     FM270000 19008KT P6SM BKN070
     FM270400 32007KT P6SM SCT070
     FM271400 32012KT P6SM BKN060
     FM271900 32014G20KT P6SM BKN060 PROB30 2719/2724 -SHRA BKN050=



000
FTUS41 KOKX 261928 AAA
TAFJFK
TAF AMD
KJFK 261928Z 2619/2724 18013KT P6SM BKN070
     FM270000 19008KT P6SM BKN070
     FM270400 32007KT P6SM SCT070
     FM271400 32012KT P6SM BKN060
     FM271900 32014G20KT P6SM BKN060 PROB30 2719/2724 -SHRA BKN050=



000
FTUS41 KOKX 261928 AAA
TAFISP
TAF AMD
KISP 261928Z 2619/2718 21008KT P6SM BKN070
     FM270100 23005KT P6SM BKN070
     FM270500 32005KT P6SM SCT070
     FM271400 31010KT P6SM BKN060=



000
FTUS41 KOKX 261928 AAA
TAFISP
TAF AMD
KISP 261928Z 2619/2718 21008KT P6SM BKN070
     FM270100 23005KT P6SM BKN070
     FM270500 32005KT P6SM SCT070
     FM271400 31010KT P6SM BKN060=



000
FTUS41 KOKX 261928 AAA
TAFTEB
TAF AMD
KTEB 261928Z 2619/2718 32005KT P6SM SCT070
     FM262300 18004KT P6SM BKN070
     FM270300 32005KT P6SM SCT070
     FM271400 32010KT P6SM BKN060=



000
FTUS41 KOKX 261928 AAA
TAFSWF
TAF AMD
KSWF 261928Z 2619/2724 33007KT P6SM BKN070
     FM270300 33006KT P6SM SCT050
     FM271400 33012KT P6SM BKN050
     FM271800 32014G20KT P6SM BKN060 PROB30 2718/2724 -SHRA BKN050
      AMD NOT SKED=



000
FTUS41 KOKX 261928 AAA
TAFGON
TAF AMD
KGON 261928Z 2619/2718 22010KT P6SM BKN070
     FM270000 23005KT P6SM BKN070
     FM270500 32004KT P6SM SCT070
     FM271400 31010KT P6SM BKN060=



000
FTUS41 KOKX 261928 AAA
TAFLGA
TAF AMD
KLGA 261928Z 2619/2718 02005KT P6SM BKN070
     FM262130 19008KT P6SM BKN070
     FM270000 21005KT P6SM BKN070
     FM270400 32007KT P6SM SCT070
     FM271400 32012KT P6SM BKN060=



000
FTUS41 KOKX 261928 AAA
TAFEWR
TAF AMD
KEWR 261928Z 2619/2724 VRB05KT P6SM BKN070
      TEMPO 2620/2622 13005KT P6SM BKN070
     FM262200 32005KT P6SM BKN070
     FM270300 32007KT P6SM SCT070
     FM271400 32012KT P6SM BKN060
     FM271900 32014G20KT P6SM BKN060 PROB30 2719/2724 -SHRA BKN050=



000
FTUS41 KOKX 261928 AAA
TAFBDR
TAF AMD
KBDR 261928Z 2619/2718 21010KT P6SM BKN070
     FM270000 23005KT P6SM BKN070
     FM270400 32005KT P6SM SCT070
     FM271400 32010KT P6SM BKN060=



000
FTUS41 KOKX 261928 AAA
TAFSWF
TAF AMD
KSWF 261928Z 2619/2724 33007KT P6SM BKN070
     FM270300 33006KT P6SM SCT050
     FM271400 33012KT P6SM BKN050
     FM271800 32014G20KT P6SM BKN060 PROB30 2718/2724 -SHRA BKN050
      AMD NOT SKED=



000
FTUS41 KOKX 261928 AAA
TAFGON
TAF AMD
KGON 261928Z 2619/2718 22010KT P6SM BKN070
     FM270000 23005KT P6SM BKN070
     FM270500 32004KT P6SM SCT070
     FM271400 31010KT P6SM BKN060=



000
FTUS41 KOKX 261928 AAA
TAFTEB
TAF AMD
KTEB 261928Z 2619/2718 32005KT P6SM SCT070
     FM262300 18004KT P6SM BKN070
     FM270300 32005KT P6SM SCT070
     FM271400 32010KT P6SM BKN060=



000
FTUS41 KOKX 261928 AAA
TAFLGA
TAF AMD
KLGA 261928Z 2619/2718 02005KT P6SM BKN070
     FM262130 19008KT P6SM BKN070
     FM270000 21005KT P6SM BKN070
     FM270400 32007KT P6SM SCT070
     FM271400 32012KT P6SM BKN060=



000
FTUS41 KOKX 261928 AAA
TAFEWR
TAF AMD
KEWR 261928Z 2619/2724 VRB05KT P6SM BKN070
      TEMPO 2620/2622 13005KT P6SM BKN070
     FM262200 32005KT P6SM BKN070
     FM270300 32007KT P6SM SCT070
     FM271400 32012KT P6SM BKN060
     FM271900 32014G20KT P6SM BKN060 PROB30 2719/2724 -SHRA BKN050=



000
FTUS41 KOKX 261928 AAA
TAFBDR
TAF AMD
KBDR 261928Z 2619/2718 21010KT P6SM BKN070
     FM270000 23005KT P6SM BKN070
     FM270400 32005KT P6SM SCT070
     FM271400 32010KT P6SM BKN060=



000
FTUS41 KOKX 261736
TAFISP
TAF
KISP 261736Z 2618/2718 03007KT P6SM BKN070
     FM261900 21008KT P6SM BKN070
     FM270100 23005KT P6SM BKN070
     FM270500 32005KT P6SM SCT070
     FM271400 31010KT P6SM BKN060=



000
FTUS41 KOKX 261736
TAFLGA
TAF
KLGA 261736Z 2618/2718 05005KT P6SM BKN070
     FM261930 19008KT P6SM BKN070
     FM270000 21005KT P6SM BKN070
     FM270400 32007KT P6SM SCT070
     FM271400 32012KT P6SM BKN060=



000
FTUS41 KOKX 261736
TAFGON
TAF
KGON 261736Z 2618/2718 22010KT P6SM BKN070
     FM270100 23004KT P6SM BKN070
     FM270500 32004KT P6SM SCT070
     FM271400 31010KT P6SM BKN060=



000
FTUS41 KOKX 261736
TAFBDR
TAF
KBDR 261736Z 2618/2718 21010KT P6SM BKN070
     FM270100 23005KT P6SM BKN070
     FM270400 32005KT P6SM SCT070
     FM271400 32010KT P6SM BKN060=



000
FTUS41 KOKX 261736
TAFSWF
TAF
KSWF 261736Z 2618/2724 30007KT P6SM BKN070
     FM270300 33006KT P6SM SCT050
     FM271400 33012KT P6SM BKN050
     FM271800 32014G20KT P6SM BKN060 PROB30 2718/2724 -SHRA BKN050
      AMD NOT SKED=



000
FTUS41 KOKX 261736
TAFTEB
TAF
KTEB 261736Z 2618/2718 VRB05KT P6SM BKN070
     FM262000 32005KT P6SM SCT070
     FM262300 18004KT P6SM BKN070
     FM270300 32005KT P6SM SCT070
     FM271400 32010KT P6SM BKN060=



000
FTUS41 KOKX 261736
TAFEWR
TAF
KEWR 261736Z 2618/2724 VRB05KT P6SM BKN070
     FM262030 13005KT P6SM BKN070
     FM262300 18004KT P6SM BKN070
     FM270300 32007KT P6SM SCT070
     FM271400 32012KT P6SM BKN060
     FM271900 32014G20KT P6SM BKN060 PROB30 2719/2724 -SHRA BKN050=



000
FTUS41 KOKX 261736
TAFJFK
TAF
KJFK 261736Z 2618/2724 18013KT P6SM BKN070
     FM270000 19007KT P6SM BKN070
     FM270400 32007KT P6SM SCT070
     FM271400 32012KT P6SM BKN060
     FM271900 32014G20KT P6SM BKN060 PROB30 2719/2724 -SHRA BKN050=



000
FTUS41 KOKX 261736
TAFTEB
TAF
KTEB 261736Z 2618/2718 VRB05KT P6SM BKN070
     FM262000 32005KT P6SM SCT070
     FM262300 18004KT P6SM BKN070
     FM270300 32005KT P6SM SCT070
     FM271400 32010KT P6SM BKN060=



000
FTUS41 KOKX 261736
TAFEWR
TAF
KEWR 261736Z 2618/2724 VRB05KT P6SM BKN070
     FM262030 13005KT P6SM BKN070
     FM262300 18004KT P6SM BKN070
     FM270300 32007KT P6SM SCT070
     FM271400 32012KT P6SM BKN060
     FM271900 32014G20KT P6SM BKN060 PROB30 2719/2724 -SHRA BKN050=



000
FTUS41 KOKX 261736
TAFSWF
TAF
KSWF 261736Z 2618/2724 30007KT P6SM BKN070
     FM270300 33006KT P6SM SCT050
     FM271400 33012KT P6SM BKN050
     FM271800 32014G20KT P6SM BKN060 PROB30 2718/2724 -SHRA BKN050
      AMD NOT SKED=



000
FTUS41 KOKX 261736
TAFLGA
TAF
KLGA 261736Z 2618/2718 05005KT P6SM BKN070
     FM261930 19008KT P6SM BKN070
     FM270000 21005KT P6SM BKN070
     FM270400 32007KT P6SM SCT070
     FM271400 32012KT P6SM BKN060=



000
FTUS41 KOKX 261736
TAFGON
TAF
KGON 261736Z 2618/2718 22010KT P6SM BKN070
     FM270100 23004KT P6SM BKN070
     FM270500 32004KT P6SM SCT070
     FM271400 31010KT P6SM BKN060=



000
FTUS41 KOKX 261736
TAFBDR
TAF
KBDR 261736Z 2618/2718 21010KT P6SM BKN070
     FM270100 23005KT P6SM BKN070
     FM270400 32005KT P6SM SCT070
     FM271400 32010KT P6SM BKN060=



000
FTUS41 KOKX 261736
TAFJFK
TAF
KJFK 261736Z 2618/2724 18013KT P6SM BKN070
     FM270000 19007KT P6SM BKN070
     FM270400 32007KT P6SM SCT070
     FM271400 32012KT P6SM BKN060
     FM271900 32014G20KT P6SM BKN060 PROB30 2719/2724 -SHRA BKN050=



000
FTUS41 KOKX 261736
TAFISP
TAF
KISP 261736Z 2618/2718 03007KT P6SM BKN070
     FM261900 21008KT P6SM BKN070
     FM270100 23005KT P6SM BKN070
     FM270500 32005KT P6SM SCT070
     FM271400 31010KT P6SM BKN060=



000
FTUS41 KOKX 261558 AAB
TAFEWR
TAF AMD
KEWR 261558Z 2616/2718 VRB05KT P6SM SCT050
     FM261900 13005KT P6SM BKN070
     FM262300 18004KT P6SM BKN070
     FM270300 32007KT P6SM SCT070
     FM271400 32012KT P6SM SCT050 BKN120=



000
FTUS41 KOKX 261556 AAB
TAFLGA
TAF AMD
KLGA 261556Z 2616/2712 05007KT P6SM FEW050
     FM261900 19008KT P6SM BKN070
     FM270000 21005KT P6SM BKN070
     FM270400 32007KT P6SM SCT070=



000
FTUS41 KOKX 261555 AAB
TAFJFK
TAF AMD
KJFK 261555Z 2616/2718 18010KT P6SM FEW050
     FM261800 18013KT P6SM SCT070
     FM270000 19007KT P6SM BKN070
     FM270400 32007KT P6SM SCT070
     FM271400 32012KT P6SM SCT050 BKN120=



000
FTUS41 KOKX 261429 AAA
TAFSWF
TAF AMD
KSWF 261429Z 2614/2718 VRB05KT P6SM BKN060
     FM261800 31007KT P6SM BKN070
     FM270300 33006KT P6SM SCT050
     FM271400 33012KT P6SM BKN050
      AMD NOT SKED=



000
FTUS41 KOKX 261429 AAA
TAFBDR
TAF AMD
KBDR 261429Z 2614/2712 20008KT P6SM BKN070
     FM270100 23005KT P6SM BKN070
     FM270400 32005KT P6SM SCT070=



000
FTUS41 KOKX 261429 AAA
TAFTEB
TAF AMD
KTEB 261429Z 2614/2712 VRB05KT P6SM FEW050
     FM261900 32005KT P6SM SCT070
     FM262300 18004KT P6SM BKN070
     FM270300 32005KT P6SM SCT070=



000
FTUS41 KOKX 261429 AAA
TAFGON
TAF AMD
KGON 261429Z 2614/2712 36005KT P6SM BKN070
     FM261500 21008KT P6SM BKN070
     FM270100 23004KT P6SM BKN070
     FM270500 32004KT P6SM SCT070=



000
FTUS41 KOKX 261429 AAA
TAFEWR
TAF AMD
KEWR 261429Z 2614/2718 04007KT P6SM FEW050
     FM261900 32005KT P6SM SCT070
     FM262100 VRB04KT P6SM BKN070
     FM262300 18004KT P6SM BKN070
     FM270300 32007KT P6SM SCT070
     FM271400 32012KT P6SM SCT050 BKN120=



000
FTUS41 KOKX 261429 AAA
TAFLGA
TAF AMD
KLGA 261429Z 2614/2712 05007KT P6SM FEW050
     FM262030 19008KT P6SM BKN070
     FM270000 21005KT P6SM BKN070
     FM270400 32007KT P6SM SCT070=



000
FTUS41 KOKX 261429 AAA
TAFISP
TAF AMD
KISP 261429Z 2614/2712 03007KT P6SM SCT050
     FM261930 21008KT P6SM BKN070
     FM270100 23005KT P6SM BKN070
     FM270500 32005KT P6SM SCT070=



000
FTUS41 KOKX 261429 AAA
TAFJFK
TAF AMD
KJFK 261429Z 2614/2718 04007KT P6SM FEW050
     FM261830 18012KT P6SM SCT070
     FM270000 19007KT P6SM BKN070
     FM270400 32007KT P6SM SCT070
     FM271400 32012KT P6SM SCT050 BKN120=



000
FTUS41 KOKX 261121
TAFSWF
TAF
KSWF 261121Z 2612/2718 35004KT P6SM SKC
     FM261800 31007KT P6SM BKN070
     FM270300 33006KT P6SM SCT050
     FM271400 33012KT P6SM BKN050
      AMD NOT SKED=



000
FTUS41 KOKX 261121
TAFLGA
TAF
KLGA 261121Z 2612/2712 05007KT P6SM FEW050
     FM262100 19008KT P6SM SCT070
     FM270000 21005KT P6SM BKN070
     FM270400 32007KT P6SM SCT070=



000
FTUS41 KOKX 261121
TAFTEB
TAF
KTEB 261121Z 2612/2712 01004KT P6SM FEW050
     FM261900 32005KT P6SM SCT070
     FM262300 18004KT P6SM BKN070
     FM270300 32005KT P6SM SCT070=



000
FTUS41 KOKX 261121
TAFEWR
TAF
KEWR 261121Z 2612/2718 03007KT P6SM FEW050
     FM261900 32005KT P6SM SCT070
     FM262100 VRB04KT P6SM SCT070
     FM262300 18004KT P6SM BKN070
     FM270300 32007KT P6SM SCT070
     FM271400 32012KT P6SM SCT050=



000
FTUS41 KOKX 261121
TAFBDR
TAF
KBDR 261121Z 2612/2712 01006KT P6SM FEW050
     FM261600 20008KT P6SM SCT070
     FM270100 23005KT P6SM BKN070
     FM270400 32005KT P6SM SCT070=



000
FTUS41 KOKX 261121
TAFGON
TAF
KGON 261121Z 2612/2712 36005KT P6SM SCT070
     FM261500 21008KT P6SM BKN070
     FM270100 23004KT P6SM BKN070
     FM270500 32004KT P6SM SCT070=



000
FTUS41 KOKX 261121
TAFISP
TAF
KISP 261121Z 2612/2712 03007KT P6SM FEW050
     FM261800 24007KT P6SM SCT070
     FM262000 21008KT P6SM SCT070
     FM270100 23005KT P6SM BKN070
     FM270500 32005KT P6SM SCT070=



000
FTUS41 KOKX 261121
TAFJFK
TAF
KJFK 261121Z 2612/2718 04007KT P6SM FEW050
     FM261900 18012KT P6SM SCT070
     FM270000 19007KT P6SM BKN070
     FM270400 32007KT P6SM SCT070
     FM271400 32012KT P6SM SCT050=



000
FTUS41 KOKX 261121
TAFLGA
TAF
KLGA 261121Z 2612/2712 05007KT P6SM FEW050
     FM262100 19008KT P6SM SCT070
     FM270000 21005KT P6SM BKN070
     FM270400 32007KT P6SM SCT070=



000
FTUS41 KOKX 261121
TAFJFK
TAF
KJFK 261121Z 2612/2718 04007KT P6SM FEW050
     FM261900 18012KT P6SM SCT070
     FM270000 19007KT P6SM BKN070
     FM270400 32007KT P6SM SCT070
     FM271400 32012KT P6SM SCT050=



000
FTUS41 KOKX 261121
TAFISP
TAF
KISP 261121Z 2612/2712 03007KT P6SM FEW050
     FM261800 24007KT P6SM SCT070
     FM262000 21008KT P6SM SCT070
     FM270100 23005KT P6SM BKN070
     FM270500 32005KT P6SM SCT070=



000
FTUS41 KOKX 261121
TAFSWF
TAF
KSWF 261121Z 2612/2718 35004KT P6SM SKC
     FM261800 31007KT P6SM BKN070
     FM270300 33006KT P6SM SCT050
     FM271400 33012KT P6SM BKN050
      AMD NOT SKED=



000
FTUS41 KOKX 261121
TAFEWR
TAF
KEWR 261121Z 2612/2718 03007KT P6SM FEW050
     FM261900 32005KT P6SM SCT070
     FM262100 VRB04KT P6SM SCT070
     FM262300 18004KT P6SM BKN070
     FM270300 32007KT P6SM SCT070
     FM271400 32012KT P6SM SCT050=



000
FTUS41 KOKX 261121
TAFBDR
TAF
KBDR 261121Z 2612/2712 01006KT P6SM FEW050
     FM261600 20008KT P6SM SCT070
     FM270100 23005KT P6SM BKN070
     FM270400 32005KT P6SM SCT070=



000
FTUS41 KOKX 261121
TAFTEB
TAF
KTEB 261121Z 2612/2712 01004KT P6SM FEW050
     FM261900 32005KT P6SM SCT070
     FM262300 18004KT P6SM BKN070
     FM270300 32005KT P6SM SCT070=



000
FTUS41 KOKX 261121
TAFGON
TAF
KGON 261121Z 2612/2712 36005KT P6SM SCT070
     FM261500 21008KT P6SM BKN070
     FM270100 23004KT P6SM BKN070
     FM270500 32004KT P6SM SCT070=



000
FTUS41 KOKX 260832 AAA
TAFISP
TAF AMD
KISP 260832Z 2609/2706 02007KT P6SM SCT250
     FM261800 24007KT P6SM SCT050
     FM262000 21008KT P6SM SCT050
     FM270100 23005KT P6SM BKN070
     FM270500 32005KT P6SM SCT070=



000
FTUS41 KOKX 260832 AAA
TAFTEB
TAF AMD
KTEB 260832Z 2609/2706 02004KT P6SM SCT250
     FM261900 32005KT P6SM SCT050
     FM262300 18004KT P6SM BKN070
     FM270300 32005KT P6SM SCT070=



000
FTUS41 KOKX 260832 AAA
TAFSWF
TAF AMD
KSWF 260832Z 2609/2712 35004KT P6SM SKC
     FM261800 31007KT P6SM BKN070
     FM270300 31008KT P6SM SCT050
      AMD NOT SKED=



000
FTUS41 KOKX 260832 AAA
TAFLGA
TAF AMD
KLGA 260832Z 2609/2706 04007KT P6SM SCT250
     FM261500 05007KT P6SM FEW050
     FM262100 19008KT P6SM SCT050
     FM270000 21005KT P6SM BKN070
     FM270400 32007KT P6SM SCT070=



000
FTUS41 KOKX 260832 AAA
TAFJFK
TAF AMD
KJFK 260832Z 2609/2712 02008KT P6SM SCT250
     FM261500 04007KT P6SM FEW050
     FM261900 18012KT P6SM SCT050
     FM270000 19007KT P6SM BKN070
     FM270400 32007KT P6SM SCT070=



000
FTUS41 KOKX 260832 AAA
TAFEWR
TAF AMD
KEWR 260832Z 2609/2712 01007KT P6SM SCT250
     FM261500 03007KT P6SM FEW050
     FM261900 32005KT P6SM SCT050
     FM262100 VRB04KT P6SM SCT050
     FM262300 18004KT P6SM BKN070
     FM270300 32007KT P6SM SCT070=



000
FTUS41 KOKX 260832 AAA
TAFBDR
TAF AMD
KBDR 260832Z 2609/2706 01006KT P6SM SCT250
     FM261600 20008KT P6SM SCT050
     FM270100 23005KT P6SM BKN070
     FM270400 32005KT P6SM SCT070=



000
FTUS41 KOKX 260832 AAA
TAFGON
TAF AMD
KGON 260832Z 2609/2706 36005KT P6SM SKC
     FM261500 21008KT P6SM SCT050
     FM270100 23004KT P6SM BKN070
     FM270500 32004KT P6SM SCT070=



000
FTUS41 KOKX 260534
TAFBDR
TAF
KBDR 260534Z 2606/2706 02005KT P6SM SCT250
     FM261600 20008KT P6SM SCT050
     FM270100 23005KT P6SM BKN070
     FM270400 32005KT P6SM SCT070=



000
FTUS41 KOKX 260534
TAFLGA
TAF
KLGA 260534Z 2606/2706 01007KT P6SM BKN250
     FM261500 05007KT P6SM FEW050
     FM262100 19008KT P6SM SCT050
     FM270000 21005KT P6SM BKN070
     FM270400 32007KT P6SM SCT070=



000
FTUS41 KOKX 260534
TAFGON
TAF
KGON 260534Z 2606/2706 36005KT P6SM SKC
     FM261500 21008KT P6SM SCT050
     FM270100 23004KT P6SM BKN070
     FM270500 32004KT P6SM SCT070=



000
FTUS41 KOKX 260534
TAFISP
TAF
KISP 260534Z 2606/2706 02007KT P6SM BKN250
     FM261800 24007KT P6SM SCT050
     FM262000 21008KT P6SM SCT050
     FM270100 23005KT P6SM BKN070
     FM270500 32005KT P6SM SCT070=



000
FTUS41 KOKX 260534
TAFEWR
TAF
KEWR 260534Z 2606/2712 01007KT P6SM BKN250
     FM261500 03007KT P6SM FEW050
     FM261900 32005KT P6SM SCT050
     FM262100 VRB04KT P6SM SCT050
     FM262300 18004KT P6SM BKN070
     FM270300 32007KT P6SM SCT070=



000
FTUS41 KOKX 260534
TAFSWF
TAF
KSWF 260534Z 2606/2712 35004KT P6SM SKC
     FM261800 31007KT P6SM BKN070
     FM270300 31008KT P6SM SCT050
      AMD NOT SKED=



000
FTUS41 KOKX 260534
TAFTEB
TAF
KTEB 260534Z 2606/2706 02004KT P6SM BKN250
     FM261900 32005KT P6SM SCT050
     FM262300 18004KT P6SM BKN070
     FM270300 32005KT P6SM SCT070=



000
FTUS41 KOKX 260534
TAFJFK
TAF
KJFK 260534Z 2606/2712 02008KT P6SM BKN250
     FM261500 04007KT P6SM FEW050
     FM261900 18012KT P6SM SCT050
     FM270000 19007KT P6SM BKN070
     FM270400 32007KT P6SM SCT070=



000
FTUS41 KOKX 260331 AAB
TAFISP
TAF AMD
KISP 260331Z 2604/2624 02007KT P6SM BKN250
     FM261500 34007KT P6SM SCT050
     FM261800 24007KT P6SM SCT050 SCT100
     FM262300 22007KT P6SM BKN050 BKN100=



000
FTUS41 KOKX 260331 AAB
TAFTEB
TAF AMD
KTEB 260331Z 2604/2624 02008KT P6SM BKN250
     FM260600 02004KT P6SM BKN250
     FM261500 35006KT P6SM SCT050
     FM261900 32005KT P6SM SCT050 SCT100
     FM262300 31005KT P6SM BKN050 BKN100=



000
FTUS41 KOKX 260329 AAB
TAFLGA
TAF AMD
KLGA 260329Z 2603/2624 04008KT P6SM BKN250
     FM261600 03008KT P6SM SCT050
     FM262000 VRB05KT P6SM SCT050 SCT100
     FM262300 32006KT P6SM BKN050 BKN100=



000
FTUS41 KOKX 260329 AAB
TAFEWR
TAF AMD
KEWR 260329Z 2603/2706 02010KT P6SM BKN250
     FM260600 01006KT P6SM BKN250
     FM261500 36008KT P6SM SCT050
     FM261900 32005KT P6SM SCT050 SCT100
     FM262300 31005KT P6SM BKN050 BKN100
     FM270200 34005KT P6SM BKN050 BKN100=



000
FTUS41 KOKX 260329 AAB
TAFJFK
TAF AMD
KJFK 260329Z 2603/2706 02008KT P6SM BKN250
     FM261500 04007KT P6SM SCT050
     FM261900 18007KT P6SM SCT050 SCT100
     FM262300 21007KT P6SM BKN050 BKN100
     FM270200 34005KT P6SM BKN050 BKN100=



000
FTUS41 KOKX 260216 AAA
TAFJFK
TAF AMD
KJFK 260216Z 2602/2706 VRB04KT P6SM BKN250
     FM260600 01005KT P6SM FEW070 BKN250
     FM261500 04007KT P6SM SCT050
     FM261900 18007KT P6SM SCT050 SCT100
     FM262300 21007KT P6SM BKN050 BKN100
     FM270200 34005KT P6SM BKN050 BKN100=



000
FTUS41 KOKX 260216 AAA
TAFISP
TAF AMD
KISP 260216Z 2602/2624 VRB04KT P6SM BKN250
     FM260600 01006KT P6SM FEW070 BKN250
     FM261500 34007KT P6SM SCT050
     FM261800 24007KT P6SM SCT050 SCT100
     FM262300 22007KT P6SM BKN050 BKN100=



000
FTUS41 KOKX 260216 AAA
TAFLGA
TAF AMD
KLGA 260216Z 2602/2624 VRB05KT P6SM SCT250
     FM260600 03008KT P6SM FEW070 BKN250
     FM261600 03008KT P6SM SCT050
     FM262000 VRB05KT P6SM SCT050 SCT100
     FM262300 32006KT P6SM BKN050 BKN100=



000
FTUS41 KOKX 260216 AAA
TAFTEB
TAF AMD
KTEB 260216Z 2602/2624 VRB03KT P6SM BKN250
     FM260600 01004KT P6SM FEW070 BKN250
     FM261500 35006KT P6SM SCT050
     FM261900 32005KT P6SM SCT050 SCT100
     FM262300 31005KT P6SM BKN050 BKN100=



000
FTUS41 KOKX 260216 AAA
TAFSWF
TAF AMD
KSWF 260216Z 2602/2706 VRB03KT P6SM SCT250
     FM260500 03004KT P6SM FEW060 SCT250
     FM261500 34008KT P6SM BKN050 BKN100
     FM270100 33008KT P6SM SCT050
      AMD NOT SKED=



000
FTUS41 KOKX 260216 AAA
TAFBDR
TAF AMD
KBDR 260216Z 2602/2624 VRB03KT P6SM SCT250
     FM260500 02005KT P6SM FEW070 SCT250
     FM261500 33006KT P6SM SCT050
     FM261600 18008KT P6SM SCT050 SCT100
     FM262200 21007KT P6SM BKN050 BKN100=



000
FTUS41 KOKX 260216 AAA
TAFGON
TAF AMD
KGON 260216Z 2602/2624 VRB05KT P6SM SCT070
     FM260500 02006KT P6SM FEW070 SCT250
     FM261500 21008KT P6SM SCT050
     FM261600 18009KT P6SM SCT050 SCT100
     FM262200 21008KT P6SM BKN050 BKN100=



000
FTUS41 KOKX 260216 AAA
TAFEWR
TAF AMD
KEWR 260216Z 2602/2706 VRB03KT P6SM BKN250
     FM260600 01005KT P6SM FEW070 BKN250
     FM261500 36008KT P6SM SCT050
     FM261900 32005KT P6SM SCT050 SCT100
     FM262300 31005KT P6SM BKN050 BKN100
     FM270200 34005KT P6SM BKN050 BKN100=



000
FTUS41 KOKX 252324
TAFTEB
TAF
KTEB 252324Z 2600/2624 VRB05KT P6SM SCT250
     FM260400 01004KT P6SM BKN250
     FM261500 35006KT P6SM SCT050
     FM261900 32005KT P6SM SCT050 SCT100
     FM262300 31005KT P6SM BKN050 BKN100=



000
FTUS41 KOKX 252324
TAFEWR
TAF
KEWR 252324Z 2600/2706 30007KT P6SM SCT250
     FM260300 36005KT P6SM BKN250
     FM261500 36008KT P6SM SCT050
     FM261900 32005KT P6SM SCT050 SCT100
     FM262300 31005KT P6SM BKN050 BKN100
     FM270200 34005KT P6SM BKN050 BKN100=



000
FTUS41 KOKX 252324
TAFGON
TAF
KGON 252324Z 2600/2624 25009KT P6SM SCT250
     FM260300 VRB05KT P6SM SCT250
     FM260500 02006KT P6SM SCT250
     FM261500 21008KT P6SM SCT050
     FM261600 18009KT P6SM SCT050 SCT100
     FM262200 21008KT P6SM BKN050 BKN100=



000
FTUS41 KOKX 252324
TAFEWR
TAF
KEWR 252324Z 2600/2706 30007KT P6SM SCT250
     FM260300 36005KT P6SM BKN250
     FM261500 36008KT P6SM SCT050
     FM261900 32005KT P6SM SCT050 SCT100
     FM262300 31005KT P6SM BKN050 BKN100
     FM270200 34005KT P6SM BKN050 BKN100=



000
FTUS41 KOKX 252324
TAFSWF
TAF
KSWF 252324Z 2600/2706 VRB03KT P6SM SCT250
     FM260500 03004KT P6SM SCT250
     FM261500 34008KT P6SM BKN050 BKN100
     FM270100 33008KT P6SM SCT050
      AMD NOT SKED=



000
FTUS41 KOKX 252324
TAFBDR
TAF
KBDR 252324Z 2600/2624 22008KT P6SM SCT250
     FM260200 VRB05KT P6SM SCT250
     FM260500 02005KT P6SM SCT250
     FM261500 33006KT P6SM SCT050
     FM261600 18008KT P6SM SCT050 SCT100
     FM262200 21007KT P6SM BKN050 BKN100=



000
FTUS41 KOKX 252324
TAFLGA
TAF
KLGA 252324Z 2600/2624 VRB05KT P6SM SCT250
     FM260400 36006KT P6SM BKN250
     FM260600 03008KT P6SM BKN250
     FM261600 03008KT P6SM SCT050
     FM262000 VRB05KT P6SM SCT050 SCT100
     FM262300 32006KT P6SM BKN050 BKN100=



000
FTUS41 KOKX 252324
TAFJFK
TAF
KJFK 252324Z 2600/2706 19010KT P6SM SCT250
     FM260300 34005KT P6SM BKN250
     FM260600 01005KT P6SM BKN250
     FM261500 04007KT P6SM SCT050
     FM261900 18007KT P6SM SCT050 SCT100
     FM262300 21007KT P6SM BKN050 BKN100
     FM270200 34005KT P6SM BKN050 BKN100=



000
FTUS41 KOKX 252324
TAFSWF
TAF
KSWF 252324Z 2600/2706 VRB03KT P6SM SCT250
     FM260500 03004KT P6SM SCT250
     FM261500 34008KT P6SM BKN050 BKN100
     FM270100 33008KT P6SM SCT050
      AMD NOT SKED=



000
FTUS41 KOKX 252324
TAFISP
TAF
KISP 252324Z 2600/2624 23008KT P6SM SCT250
     FM260100 VRB05KT P6SM BKN250
     FM260600 01006KT P6SM BKN250
     FM261500 34007KT P6SM SCT050
     FM261800 24007KT P6SM SCT050 SCT100
     FM262300 22007KT P6SM BKN050 BKN100=



000
FTUS41 KOKX 252324
TAFISP
TAF
KISP 252324Z 2600/2624 23008KT P6SM SCT250
     FM260100 VRB05KT P6SM BKN250
     FM260600 01006KT P6SM BKN250
     FM261500 34007KT P6SM SCT050
     FM261800 24007KT P6SM SCT050 SCT100
     FM262300 22007KT P6SM BKN050 BKN100=



000
FTUS41 KOKX 252324
TAFTEB
TAF
KTEB 252324Z 2600/2624 VRB05KT P6SM SCT250
     FM260400 01004KT P6SM BKN250
     FM261500 35006KT P6SM SCT050
     FM261900 32005KT P6SM SCT050 SCT100
     FM262300 31005KT P6SM BKN050 BKN100=



000
FTUS41 KOKX 252324
TAFLGA
TAF
KLGA 252324Z 2600/2624 VRB05KT P6SM SCT250
     FM260400 36006KT P6SM BKN250
     FM260600 03008KT P6SM BKN250
     FM261600 03008KT P6SM SCT050
     FM262000 VRB05KT P6SM SCT050 SCT100
     FM262300 32006KT P6SM BKN050 BKN100=



000
FTUS41 KOKX 252324
TAFBDR
TAF
KBDR 252324Z 2600/2624 22008KT P6SM SCT250
     FM260200 VRB05KT P6SM SCT250
     FM260500 02005KT P6SM SCT250
     FM261500 33006KT P6SM SCT050
     FM261600 18008KT P6SM SCT050 SCT100
     FM262200 21007KT P6SM BKN050 BKN100=



000
FTUS41 KOKX 252324
TAFJFK
TAF
KJFK 252324Z 2600/2706 19010KT P6SM SCT250
     FM260300 34005KT P6SM BKN250
     FM260600 01005KT P6SM BKN250
     FM261500 04007KT P6SM SCT050
     FM261900 18007KT P6SM SCT050 SCT100
     FM262300 21007KT P6SM BKN050 BKN100
     FM270200 34005KT P6SM BKN050 BKN100=



000
FTUS41 KOKX 252324
TAFGON
TAF
KGON 252324Z 2600/2624 25009KT P6SM SCT250
     FM260300 VRB05KT P6SM SCT250
     FM260500 02006KT P6SM SCT250
     FM261500 21008KT P6SM SCT050
     FM261600 18009KT P6SM SCT050 SCT100
     FM262200 21008KT P6SM BKN050 BKN100=



000
FTUS41 KOKX 252215 AAB
TAFISP
TAF AMD
KISP 252215Z 2522/2618 22010KT P6SM SCT250
     FM260100 VRB05KT P6SM BKN250
     FM260500 01006KT P6SM BKN250=



000
FTUS41 KOKX 252215 AAB
TAFISP
TAF AMD
KISP 252215Z 2522/2618 22010KT P6SM SCT250
     FM260100 VRB05KT P6SM BKN250
     FM260500 01006KT P6SM BKN250=



000
FTUS41 KOKX 252119 AAB
TAFLGA
TAF AMD
KLGA 252119Z 2521/2618 32010KT P6SM FEW050 BKN250
     FM252300 32005KT P6SM BKN250
     FM260100 VRB05KT P6SM BKN250
     FM260400 36006KT P6SM BKN250
     FM260600 03008KT P6SM BKN250=



000
FTUS41 KOKX 252119 AAB
TAFLGA
TAF AMD
KLGA 252119Z 2521/2618 32010KT P6SM FEW050 BKN250
     FM252300 32005KT P6SM BKN250
     FM260100 VRB05KT P6SM BKN250
     FM260400 36006KT P6SM BKN250
     FM260600 03008KT P6SM BKN250=



000
FTUS41 KOKX 252031 AAA
TAFISP
TAF AMD
KISP 252031Z 2521/2618 27012KT P6SM FEW050 SCT250
     FM252200 23009KT P6SM SCT250
     FM260100 VRB05KT P6SM BKN250
     FM260500 01006KT P6SM BKN250=



000
FTUS41 KOKX 252031 AAA
TAFSWF
TAF AMD
KSWF 252031Z 2521/2624 30010KT P6SM FEW050 SCT250
     FM252300 VRB03KT P6SM SCT250
     FM260500 04004KT P6SM SCT250
     FM261500 34008KT P6SM BKN050
      AMD NOT SKED=



000
FTUS41 KOKX 252031 AAB
TAFBDR
TAF AMD
KBDR 252031Z 2521/2618 21015KT P6SM SCT250
     FM252200 22010KT P6SM SCT250
     FM260200 VRB05KT P6SM BKN250
     FM260500 02005KT P6SM BKN250
     FM261700 16008KT P6SM SCT050=



000
FTUS41 KOKX 252031 AAA
TAFJFK
TAF AMD
KJFK 252031Z 2521/2624 19013KT P6SM BKN250
     FM260300 VRB05KT P6SM BKN250
     FM260600 01005KT P6SM BKN250
     FM261500 04007KT P6SM SCT050
     FM261900 18007KT P6SM SCT050=



000
FTUS41 KOKX 252031 AAA
TAFGON
TAF AMD
KGON 252031Z 2521/2618 23013G22KT P6SM FEW050 SCT250
     FM252200 23009KT P6SM FEW050 SCT250
     FM260500 36004KT P6SM BKN250
     FM261600 18008KT P6SM SCT050=



000
FTUS41 KOKX 252031 AAA
TAFTEB
TAF AMD
KTEB 252031Z 2521/2618 34008KT P6SM FEW050 BKN250
     FM252300 VRB05KT P6SM BKN250
     FM260600 01003KT P6SM BKN250=



000
FTUS41 KOKX 252031 AAA
TAFEWR
TAF AMD
KEWR 252031Z 2521/2624 30012KT P6SM FEW050 BKN250
     FM252300 VRB05KT P6SM BKN250
     FM260600 01005KT P6SM BKN250
     FM261500 35008KT P6SM SCT050=



000
FTUS41 KOKX 252031 AAA
TAFLGA
TAF AMD
KLGA 252031Z 2521/2618 26010KT P6SM FEW050 BKN250
     FM252300 22005KT P6SM BKN250
     FM260100 VRB05KT P6SM BKN250
     FM260400 36006KT P6SM BKN250
     FM260600 03008KT P6SM BKN250=



000
FTUS41 KOKX 251832 AAA
TAFBDR
TAF AMD
KBDR 251832Z 2519/2618 22015KT P6SM SCT250
     FM252200 22010KT P6SM SCT250
     FM260200 VRB05KT P6SM BKN250
     FM260500 02005KT P6SM BKN250
     FM261700 16008KT P6SM SCT050=



000
FTUS41 KOKX 251738
TAFJFK
TAF
KJFK 251738Z 2518/2624 27013G19KT P6SM BKN250
     FM251900 22012KT P6SM FEW050 BKN250
     FM252030 19010KT P6SM BKN250
     FM260300 VRB05KT P6SM BKN250
     FM260600 01005KT P6SM BKN250
     FM261500 04007KT P6SM SCT050=



000
FTUS41 KOKX 251738
TAFISP
TAF
KISP 251738Z 2518/2618 30013G20KT P6SM SCT250
     FM252000 27012KT P6SM FEW050 SCT250
     FM252300 23008KT P6SM SCT250
     FM260100 VRB05KT P6SM BKN250
     FM260500 01006KT P6SM BKN250=



000
FTUS41 KOKX 251738
TAFLGA
TAF
KLGA 251738Z 2518/2618 30011G17KT P6SM BKN250
     FM252100 28010KT P6SM FEW050 BKN250
     FM252300 22005KT P6SM BKN250
     FM260100 VRB05KT P6SM BKN250
     FM260400 36006KT P6SM BKN250
     FM260600 03008KT P6SM BKN250=



000
FTUS41 KOKX 251738
TAFGON
TAF
KGON 251738Z 2518/2618 23013G22KT P6SM FEW050 SCT250
     FM252100 23009KT P6SM FEW050 SCT250
     FM260500 36004KT P6SM BKN250
     FM261600 18008KT P6SM SCT050=



000
FTUS41 KOKX 251738
TAFBDR
TAF
KBDR 251738Z 2518/2618 32010G20KT P6SM FEW050 SCT250
     FM252000 24010KT P6SM SCT250
     FM260200 VRB05KT P6SM BKN250
     FM260500 02005KT P6SM BKN250
     FM261700 16008KT P6SM SCT050=



000
FTUS41 KOKX 251738
TAFSWF
TAF
KSWF 251738Z 2518/2624 29010KT P6SM FEW050 SCT250
     FM252300 VRB03KT P6SM SCT250
     FM260500 04004KT P6SM SCT250
     FM261500 34008KT P6SM BKN050
      AMD NOT SKED=



000
FTUS41 KOKX 251738
TAFTEB
TAF
KTEB 251738Z 2518/2618 29009G15KT P6SM BKN250
     FM252100 34008KT P6SM FEW050 BKN250
     FM252300 VRB05KT P6SM BKN250
     FM260600 01003KT P6SM BKN250=



000
FTUS41 KOKX 251738
TAFEWR
TAF
KEWR 251738Z 2518/2624 30011G17KT P6SM BKN250
     FM252000 29009KT P6SM FEW050 BKN250
     FM252300 VRB05KT P6SM BKN250
     FM260600 01005KT P6SM BKN250
     FM261500 35008KT P6SM SCT050=



000
FTUS41 KOKX 251624 AAB
TAFGON
TAF AMD
KGON 251624Z 2516/2612 29011G19KT P6SM SCT250
      TEMPO 2516/2518 22012G20KT
     FM251800 24010KT P6SM FEW050 SCT250
     FM260500 36004KT P6SM BKN250=



000
FTUS41 KOKX 251624 AAB
TAFGON
TAF AMD
KGON 251624Z 2516/2612 29011G19KT P6SM SCT250
      TEMPO 2516/2518 22012G20KT
     FM251800 24010KT P6SM FEW050 SCT250
     FM260500 36004KT P6SM BKN250=



000
FTUS41 KOKX 251434 CCA
TAFGON
TAF COR
KGON 251434Z 2515/2612 29011G19KT P6SM SCT250
     FM251900 27008KT P6SM FEW050 SCT250
     FM252100 24008KT P6SM FEW050 SCT250
     FM260500 36004KT P6SM BKN250=



000
FTUS41 KOKX 251434 CCA
TAFGON
TAF COR
KGON 251434Z 2515/2612 29011G19KT P6SM SCT250
     FM251900 27008KT P6SM FEW050 SCT250
     FM252100 24008KT P6SM FEW050 SCT250
     FM260500 36004KT P6SM BKN250=



000
FTUS41 KOKX 251433 AAA
TAFEWR
TAF AMD
KEWR 251433Z 2515/2618 30011G17KT P6SM BKN250
     FM252000 27009KT P6SM FEW050 BKN250
     FM260000 VRB04KT P6SM BKN250
     FM260600 01005KT P6SM BKN250
     FM261500 05006KT P6SM SCT050=



000
FTUS41 KOKX 251433 AAA
TAFGON
TAF AMD
KGON 251433Z 2515/2612 29011G19KT P6SM SCT250
     FM252200 26008KT P6SM FEW050 SCT250
     FM260500 36004KT P6SM BKN250=



000
FTUS41 KOKX 251433 AAA
TAFJFK
TAF AMD
KJFK 251433Z 2515/2618 30013G19KT P6SM BKN250
     FM252000 24012KT P6SM FEW050 BKN250
     FM252100 20009KT P6SM BKN250
     FM260300 VRB05KT P6SM BKN250
     FM260600 01005KT P6SM BKN250
     FM261500 04007KT P6SM SCT050=



000
FTUS41 KOKX 251433 AAA
TAFBDR
TAF AMD
KBDR 251433Z 2515/2612 31011G19KT P6SM SCT250
     FM251800 26010KT P6SM FEW050 SCT250
     FM252000 23008KT P6SM SCT250
     FM260300 36004KT P6SM BKN250
     FM260600 02005KT P6SM BKN250=



000
FTUS41 KOKX 251433 AAA
TAFSWF
TAF AMD
KSWF 251433Z 2515/2618 29010KT P6SM FEW050 SCT250
     FM252300 VRB03KT P6SM SCT250
     FM260200 04004KT P6SM BKN250
     FM261700 34006KT P6SM SCT050
      AMD NOT SKED=



000
FTUS41 KOKX 251433 AAA
TAFISP
TAF AMD
KISP 251433Z 2515/2612 31013G20KT P6SM SCT250
     FM252000 27012KT P6SM FEW050 SCT250
     FM252300 23008KT P6SM SCT250
     FM260200 VRB03KT P6SM BKN250
     FM260600 01004KT P6SM BKN250=



000
FTUS41 KOKX 251433 AAA
TAFTEB
TAF AMD
KTEB 251433Z 2515/2612 30009G15KT P6SM BKN250
     FM252000 26008KT P6SM FEW050 BKN250
     FM252300 VRB03KT P6SM BKN250
     FM260600 01003KT P6SM BKN250=



000
FTUS41 KOKX 251433 AAA
TAFEWR
TAF AMD
KEWR 251433Z 2515/2618 30011G17KT P6SM BKN250
     FM252000 27009KT P6SM FEW050 BKN250
     FM260000 VRB04KT P6SM BKN250
     FM260600 01005KT P6SM BKN250
     FM261500 05006KT P6SM SCT050=



000
FTUS41 KOKX 251433 AAA
TAFGON
TAF AMD
KGON 251433Z 2515/2612 29011G19KT P6SM SCT250
     FM252200 26008KT P6SM FEW050 SCT250
     FM260500 36004KT P6SM BKN250=



000
FTUS41 KOKX 251433 AAA
TAFISP
TAF AMD
KISP 251433Z 2515/2612 31013G20KT P6SM SCT250
     FM252000 27012KT P6SM FEW050 SCT250
     FM252300 23008KT P6SM SCT250
     FM260200 VRB03KT P6SM BKN250
     FM260600 01004KT P6SM BKN250=



000
FTUS41 KOKX 251433 AAA
TAFTEB
TAF AMD
KTEB 251433Z 2515/2612 30009G15KT P6SM BKN250
     FM252000 26008KT P6SM FEW050 BKN250
     FM252300 VRB03KT P6SM BKN250
     FM260600 01003KT P6SM BKN250=



000
FTUS41 KOKX 251433 AAA
TAFJFK
TAF AMD
KJFK 251433Z 2515/2618 30013G19KT P6SM BKN250
     FM252000 24012KT P6SM FEW050 BKN250
     FM252100 20009KT P6SM BKN250
     FM260300 VRB05KT P6SM BKN250
     FM260600 01005KT P6SM BKN250
     FM261500 04007KT P6SM SCT050=



000
FTUS41 KOKX 251433 AAA
TAFSWF
TAF AMD
KSWF 251433Z 2515/2618 29010KT P6SM FEW050 SCT250
     FM252300 VRB03KT P6SM SCT250
     FM260200 04004KT P6SM BKN250
     FM261700 34006KT P6SM SCT050
      AMD NOT SKED=



000
FTUS41 KOKX 251433 AAA
TAFBDR
TAF AMD
KBDR 251433Z 2515/2612 31011G19KT P6SM SCT250
     FM251800 26010KT P6SM FEW050 SCT250
     FM252000 23008KT P6SM SCT250
     FM260300 36004KT P6SM BKN250
     FM260600 02005KT P6SM BKN250=



000
FTUS41 KOKX 251433 AAA
TAFLGA
TAF AMD
KLGA 251433Z 2515/2612 30011G17KT P6SM BKN250
     FM252000 26009KT P6SM FEW050 BKN250
     FM252300 21005KT P6SM BKN250
     FM260300 VRB04KT P6SM BKN250
     FM260600 02005KT P6SM BKN250=



000
FTUS41 KOKX 251433 AAA
TAFLGA
TAF AMD
KLGA 251433Z 2515/2612 30011G17KT P6SM BKN250
     FM252000 26009KT P6SM FEW050 BKN250
     FM252300 21005KT P6SM BKN250
     FM260300 VRB04KT P6SM BKN250
     FM260600 02005KT P6SM BKN250=



000
FTUS41 KOKX 251123
TAFTEB
TAF
KTEB 251123Z 2512/2612 29008KT P6SM SKC
     FM251400 30009G15KT P6SM SCT250
     FM252000 26008KT P6SM FEW050 SCT250
     FM252300 VRB03KT P6SM SCT250
     FM260600 01003KT P6SM BKN250=



000
FTUS41 KOKX 251123
TAFGON
TAF
KGON 251123Z 2512/2612 29010KT P6SM SKC
     FM251400 29011G19KT P6SM SCT250
     FM252200 26008KT P6SM FEW050 SCT250
     FM260500 36004KT P6SM BKN250=



000
FTUS41 KOKX 251123
TAFJFK
TAF
KJFK 251123Z 2512/2618 30011KT P6SM SKC
     FM251400 30013G19KT P6SM SCT250
     FM252000 23012KT P6SM FEW050 SCT250
     FM260000 21009KT P6SM SCT250
     FM260300 VRB05KT P6SM BKN250
     FM260600 01005KT P6SM BKN250
     FM261500 04007KT P6SM SCT050=



000
FTUS41 KOKX 251123
TAFBDR
TAF
KBDR 251123Z 2512/2612 28007KT P6SM SKC
     FM251400 29011G19KT P6SM SCT250
     FM252000 26010KT P6SM FEW050 SCT250
     FM252300 23008KT P6SM SCT250
     FM260300 36004KT P6SM BKN250
     FM260600 02005KT P6SM BKN250=



000
FTUS41 KOKX 251123
TAFEWR
TAF
KEWR 251123Z 2512/2618 29009KT P6SM SKC
     FM251400 30011G17KT P6SM SCT250
     FM252000 27009KT P6SM FEW050 SCT250
     FM260000 VRB04KT P6SM SCT250
     FM260600 01005KT P6SM BKN250
     FM261500 05006KT P6SM SCT050=



000
FTUS41 KOKX 251123
TAFLGA
TAF
KLGA 251123Z 2512/2612 29010KT P6SM SKC
     FM251400 30011G17KT P6SM SCT250
     FM252000 26009KT P6SM FEW050 SCT250
     FM252300 21005KT P6SM SCT250
     FM260300 VRB04KT P6SM BKN250
     FM260600 02005KT P6SM BKN250=



000
FTUS41 KOKX 251123
TAFSWF
TAF
KSWF 251123Z 2512/2618 27007KT P6SM SKC
     FM251400 29010KT P6SM FEW050 SCT250
     FM252300 VRB03KT P6SM SCT250
     FM260200 04004KT P6SM BKN250
     FM261700 34006KT P6SM SCT050
      AMD NOT SKED=



000
FTUS41 KOKX 251123
TAFISP
TAF
KISP 251123Z 2512/2612 29006KT P6SM SKC
     FM251300 31013G20KT P6SM SCT250
     FM252000 27012KT P6SM FEW050 SCT250
     FM252300 23008KT P6SM SCT250
     FM260200 VRB03KT P6SM BKN250
     FM260600 01004KT P6SM BKN250=



000
FTUS41 KOKX 251123
TAFJFK
TAF
KJFK 251123Z 2512/2618 30011KT P6SM SKC
     FM251400 30013G19KT P6SM SCT250
     FM252000 23012KT P6SM FEW050 SCT250
     FM260000 21009KT P6SM SCT250
     FM260300 VRB05KT P6SM BKN250
     FM260600 01005KT P6SM BKN250
     FM261500 04007KT P6SM SCT050=



000
FTUS41 KOKX 251123
TAFBDR
TAF
KBDR 251123Z 2512/2612 28007KT P6SM SKC
     FM251400 29011G19KT P6SM SCT250
     FM252000 26010KT P6SM FEW050 SCT250
     FM252300 23008KT P6SM SCT250
     FM260300 36004KT P6SM BKN250
     FM260600 02005KT P6SM BKN250=



000
FTUS41 KOKX 251123
TAFEWR
TAF
KEWR 251123Z 2512/2618 29009KT P6SM SKC
     FM251400 30011G17KT P6SM SCT250
     FM252000 27009KT P6SM FEW050 SCT250
     FM260000 VRB04KT P6SM SCT250
     FM260600 01005KT P6SM BKN250
     FM261500 05006KT P6SM SCT050=



000
FTUS41 KOKX 251123
TAFLGA
TAF
KLGA 251123Z 2512/2612 29010KT P6SM SKC
     FM251400 30011G17KT P6SM SCT250
     FM252000 26009KT P6SM FEW050 SCT250
     FM252300 21005KT P6SM SCT250
     FM260300 VRB04KT P6SM BKN250
     FM260600 02005KT P6SM BKN250=



000
FTUS41 KOKX 251123
TAFTEB
TAF
KTEB 251123Z 2512/2612 29008KT P6SM SKC
     FM251400 30009G15KT P6SM SCT250
     FM252000 26008KT P6SM FEW050 SCT250
     FM252300 VRB03KT P6SM SCT250
     FM260600 01003KT P6SM BKN250=



000
FTUS41 KOKX 251123
TAFGON
TAF
KGON 251123Z 2512/2612 29010KT P6SM SKC
     FM251400 29011G19KT P6SM SCT250
     FM252200 26008KT P6SM FEW050 SCT250
     FM260500 36004KT P6SM BKN250=



000
FTUS41 KOKX 251123
TAFSWF
TAF
KSWF 251123Z 2512/2618 27007KT P6SM SKC
     FM251400 29010KT P6SM FEW050 SCT250
     FM252300 VRB03KT P6SM SCT250
     FM260200 04004KT P6SM BKN250
     FM261700 34006KT P6SM SCT050
      AMD NOT SKED=



000
FTUS41 KOKX 251123
TAFISP
TAF
KISP 251123Z 2512/2612 29006KT P6SM SKC
     FM251300 31013G20KT P6SM SCT250
     FM252000 27012KT P6SM FEW050 SCT250
     FM252300 23008KT P6SM SCT250
     FM260200 VRB03KT P6SM BKN250
     FM260600 01004KT P6SM BKN250=



000
FTUS41 KOKX 250830 AAA
TAFISP
TAF AMD
KISP 250830Z 2509/2606 29006KT P6SM SKC
     FM251300 31013G20KT P6SM SCT250
     FM252000 27012KT P6SM FEW050 SCT250
     FM252300 23008KT P6SM SCT250
     FM260200 VRB03KT P6SM BKN250=



000
FTUS41 KOKX 250830 AAA
TAFTEB
TAF AMD
KTEB 250830Z 2509/2606 29005KT P6SM SKC
     FM251400 30009G15KT P6SM SCT250
     FM252000 26008KT P6SM FEW050 SCT250
     FM252300 VRB03KT P6SM SCT250=



000
FTUS41 KOKX 250830 AAA
TAFBDR
TAF AMD
KBDR 250830Z 2509/2606 28007KT P6SM SKC
     FM251400 29011G19KT P6SM SCT250
     FM252000 26010KT P6SM FEW050 SCT250
     FM252300 23008KT P6SM SCT250
     FM260300 36004KT P6SM BKN250=



000
FTUS41 KOKX 250830 AAA
TAFLGA
TAF AMD
KLGA 250830Z 2509/2606 29010KT P6SM SKC
     FM251400 30011G17KT P6SM SCT250
     FM252000 26009KT P6SM FEW050 SCT250
     FM252300 21005KT P6SM SCT250
     FM260300 VRB04KT P6SM BKN250=



000
FTUS41 KOKX 250830 AAA
TAFEWR
TAF AMD
KEWR 250830Z 2509/2612 29009KT P6SM SKC
     FM251400 30011G17KT P6SM SCT250
     FM252000 27009KT P6SM FEW050 SCT250
     FM260000 VRB04KT P6SM SCT250
     FM260600 01005KT P6SM BKN250=



000
FTUS41 KOKX 250830 AAA
TAFJFK
TAF AMD
KJFK 250830Z 2509/2612 29010KT P6SM SKC
     FM251400 29013G19KT P6SM SCT250
     FM252000 23012G20KT P6SM FEW050 SCT250
     FM260000 21009KT P6SM SCT250
     FM260300 VRB05KT P6SM BKN250
     FM260600 01005KT P6SM BKN250=



000
FTUS41 KOKX 250830 AAA
TAFGON
TAF AMD
KGON 250830Z 2509/2606 28007KT P6SM SKC
     FM251400 29011G19KT P6SM SCT250
     FM252200 26008KT P6SM FEW050 SCT250
     FM260500 36004KT P6SM BKN250=



000
FTUS41 KOKX 250830 AAA
TAFSWF
TAF AMD
KSWF 250830Z 2509/2612 27007KT P6SM SKC
     FM251400 29010KT P6SM FEW050 SCT250
     FM252300 VRB03KT P6SM SCT250
     FM260200 04004KT P6SM BKN250
      AMD NOT SKED=



000
FTUS41 KOKX 250830 AAA
TAFISP
TAF AMD
KISP 250830Z 2509/2606 29006KT P6SM SKC
     FM251300 31013G20KT P6SM SCT250
     FM252000 27012KT P6SM FEW050 SCT250
     FM252300 23008KT P6SM SCT250
     FM260200 VRB03KT P6SM BKN250=



000
FTUS41 KOKX 250830 AAA
TAFBDR
TAF AMD
KBDR 250830Z 2509/2606 28007KT P6SM SKC
     FM251400 29011G19KT P6SM SCT250
     FM252000 26010KT P6SM FEW050 SCT250
     FM252300 23008KT P6SM SCT250
     FM260300 36004KT P6SM BKN250=



000
FTUS41 KOKX 250830 AAA
TAFEWR
TAF AMD
KEWR 250830Z 2509/2612 29009KT P6SM SKC
     FM251400 30011G17KT P6SM SCT250
     FM252000 27009KT P6SM FEW050 SCT250
     FM260000 VRB04KT P6SM SCT250
     FM260600 01005KT P6SM BKN250=



000
FTUS41 KOKX 250830 AAA
TAFJFK
TAF AMD
KJFK 250830Z 2509/2612 29010KT P6SM SKC
     FM251400 29013G19KT P6SM SCT250
     FM252000 23012G20KT P6SM FEW050 SCT250
     FM260000 21009KT P6SM SCT250
     FM260300 VRB05KT P6SM BKN250
     FM260600 01005KT P6SM BKN250=



000
FTUS41 KOKX 250830 AAA
TAFTEB
TAF AMD
KTEB 250830Z 2509/2606 29005KT P6SM SKC
     FM251400 30009G15KT P6SM SCT250
     FM252000 26008KT P6SM FEW050 SCT250
     FM252300 VRB03KT P6SM SCT250=



000
FTUS41 KOKX 250830 AAA
TAFGON
TAF AMD
KGON 250830Z 2509/2606 28007KT P6SM SKC
     FM251400 29011G19KT P6SM SCT250
     FM252200 26008KT P6SM FEW050 SCT250
     FM260500 36004KT P6SM BKN250=



000
FTUS41 KOKX 250830 AAA
TAFSWF
TAF AMD
KSWF 250830Z 2509/2612 27007KT P6SM SKC
     FM251400 29010KT P6SM FEW050 SCT250
     FM252300 VRB03KT P6SM SCT250
     FM260200 04004KT P6SM BKN250
      AMD NOT SKED=



000
FTUS41 KOKX 250830 AAA
TAFLGA
TAF AMD
KLGA 250830Z 2509/2606 29010KT P6SM SKC
     FM251400 30011G17KT P6SM SCT250
     FM252000 26009KT P6SM FEW050 SCT250
     FM252300 21005KT P6SM SCT250
     FM260300 VRB04KT P6SM BKN250=



000
FTUS41 KOKX 250520
TAFSWF
TAF
KSWF 250520Z 2506/2612 27007KT P6SM SKC
     FM251400 29010KT P6SM FEW050 SCT250
     FM252300 VRB03KT P6SM SCT250
     FM260200 04004KT P6SM BKN250
      AMD NOT SKED=



000
FTUS41 KOKX 250520
TAFBDR
TAF
KBDR 250520Z 2506/2606 28007KT P6SM SKC
     FM251400 29011G19KT P6SM SCT250
     FM252000 26010KT P6SM FEW050 SCT250
     FM252300 23008KT P6SM SCT250
     FM260300 36004KT P6SM BKN250=



000
FTUS41 KOKX 250520
TAFISP
TAF
KISP 250520Z 2506/2606 32010KT P6SM SKC
     FM250900 29006KT P6SM SKC
     FM251300 31013G20KT P6SM SCT250
     FM252000 27012KT P6SM FEW050 SCT250
     FM252300 23008KT P6SM SCT250
     FM260200 VRB03KT P6SM BKN250=



000
FTUS41 KOKX 250520
TAFTEB
TAF
KTEB 250520Z 2506/2606 31007KT P6SM SKC
     FM250800 29005KT P6SM SKC
     FM251400 30009G15KT P6SM SCT250
     FM252000 26008KT P6SM FEW050 SCT250
     FM252300 VRB03KT P6SM SCT250=



000
FTUS41 KOKX 250520
TAFGON
TAF
KGON 250520Z 2506/2606 28007KT P6SM SKC
     FM251400 29011G19KT P6SM SCT250
     FM252200 26008KT P6SM FEW050 SCT250
     FM260500 36004KT P6SM BKN250=



000
FTUS41 KOKX 250520
TAFEWR
TAF
KEWR 250520Z 2506/2612 32011KT P6SM SKC
     FM250800 29009KT P6SM SKC
     FM251400 30011G17KT P6SM SCT250
     FM252000 27009KT P6SM FEW050 SCT250
     FM260000 VRB04KT P6SM SCT250
     FM260600 01005KT P6SM BKN250=



000
FTUS41 KOKX 250520
TAFJFK
TAF
KJFK 250520Z 2506/2612 33013KT P6SM SKC
     FM250900 29012KT P6SM SKC
     FM251400 29013G19KT P6SM SCT250
     FM252000 23012G20KT P6SM FEW050 SCT250
     FM260000 21009KT P6SM SCT250
     FM260300 VRB05KT P6SM BKN250
     FM260600 01005KT P6SM BKN250=



000
FTUS41 KOKX 250520
TAFLGA
TAF
KLGA 250520Z 2506/2606 32013KT P6SM SKC
     FM250900 29011KT P6SM SKC
     FM251400 30011G17KT P6SM SCT250
     FM252000 26009KT P6SM FEW050 SCT250
     FM252300 21005KT P6SM SCT250
     FM260300 VRB04KT P6SM BKN250=



000
FTUS41 KOKX 250244 AAA
TAFEWR
TAF AMD
KEWR 250244Z 2503/2606 34014G21KT P6SM SKC
     FM250500 33012KT P6SM SKC
     FM250700 30009KT P6SM SKC
     FM251900 28010G20KT P6SM FEW050 SCT250
     FM260200 VRB06KT P6SM BKN250=



000
FTUS41 KOKX 250244 AAA
TAFTEB
TAF AMD
KTEB 250244Z 2503/2524 33012G19KT P6SM SKC
     FM250500 31007KT P6SM SKC
     FM250800 30005KT P6SM SKC
     FM251300 30010G18KT P6SM FEW050 SCT250
     FM252200 29008KT P6SM SCT250=



000
FTUS41 KOKX 250244 AAA
TAFBDR
TAF AMD
KBDR 250244Z 2503/2524 32009G17KT P6SM SKC
     FM250600 28007KT P6SM SKC
     FM251300 30014G22KT P6SM FEW050 SCT250
     FM251700 26014G22KT P6SM SCT050 SCT250
     FM252200 28010KT P6SM FEW050 SCT250=



000
FTUS41 KOKX 250244 AAA
TAFLGA
TAF AMD
KLGA 250244Z 2503/2524 34017G27KT P6SM SKC
     FM250500 33015G23KT P6SM SKC
     FM250800 30013KT P6SM SKC
     FM251700 30012G19KT P6SM FEW050 SCT250
     FM252200 30010KT P6SM FEW050 SCT250=



000
FTUS41 KOKX 250244 AAA
TAFISP
TAF AMD
KISP 250244Z 2503/2524 32014G22KT P6SM FEW045
     FM250500 32010KT P6SM SKC
     FM250700 30008KT P6SM SKC
     FM251200 31014G24KT P6SM FEW050 SCT250
     FM252000 27012G20KT P6SM FEW050 SCT250=



000
FTUS41 KOKX 250244 AAA
TAFJFK
TAF AMD
KJFK 250244Z 2503/2606 34020G30KT P6SM SKC
     FM250500 33017G25KT P6SM SKC
     FM250800 30013KT P6SM SKC
     FM251600 28013G21KT P6SM FEW050 SCT250
     FM252000 23012G20KT P6SM SCT050 SCT250
     FM260000 21009KT P6SM SCT250
     FM260300 VRB06KT P6SM BKN250=



000
FTUS41 KOKX 250244 AAA
TAFGON
TAF AMD
KGON 250244Z 2503/2524 32009G17KT P6SM FEW060
     FM250500 32008KT P6SM FEW060
     FM250800 29007KT P6SM SKC
     FM251300 30015G22KT P6SM FEW050 SCT250
     FM251700 27014G21KT P6SM SCT050 SCT250
     FM252000 29012KT P6SM FEW050 SCT250=



    US Dept of Commerce
    National Oceanic and Atmospheric Administration
    National Weather Service
    1325 East West Highway
    Silver Spring, MD 20910
    Page Author: NWS Internet Services Team
Disclaimer
Information Quality
Credits
Glossary
Privacy Policy
Freedom of Information Act (FOIA)
About Us
Career Opportunities